<?xml version="1.0" encoding="UTF-8" standalone="no" ?>
<gpx xmlns="http://www.topografix.com/GPX/1/1" xmlns:xsi="http://www.w3.org/2001/XMLSchema-instance" xsi:schemaLocation="http://www.topografix.com/GPX/1/1 http://www.topografix.com/GPX/1/1/gpx.xsd" version="1.1" creator="VisuGPX - https://www.visugpx.com">
  <metadata>
    <name>La Prade La Passade (65)</name>
    <desc><![CDATA[Parcours VTT Près d\'argeles Gazost (65 )]]></desc>
  </metadata>
  <trk>
    <name><![CDATA[la prade la passade]]></name>
    <trkseg>
      <trkpt lat="42.95866" lon="-0.06344">
        <ele>460.13</ele>
        <time>2013-08-14T07:44:02Z</time>
      </trkpt>
      <trkpt lat="42.95867" lon="-0.06344">
        <ele>457.24</ele>
        <time>2013-08-14T07:44:08Z</time>
      </trkpt>
      <trkpt lat="42.95867" lon="-0.06344">
        <ele>456.76</ele>
        <time>2013-08-14T07:44:19Z</time>
      </trkpt>
      <trkpt lat="42.95866" lon="-0.06345">
        <ele>456.76</ele>
        <time>2013-08-14T07:44:40Z</time>
      </trkpt>
      <trkpt lat="42.95867" lon="-0.06347">
        <ele>457.24</ele>
        <time>2013-08-14T07:45:04Z</time>
      </trkpt>
      <trkpt lat="42.95867" lon="-0.06345">
        <ele>458.69</ele>
        <time>2013-08-14T07:45:21Z</time>
      </trkpt>
      <trkpt lat="42.95868" lon="-0.06342">
        <ele>457.72</ele>
        <time>2013-08-14T07:45:36Z</time>
      </trkpt>
      <trkpt lat="42.95864" lon="-0.06357">
        <ele>458.21</ele>
        <time>2013-08-14T07:45:43Z</time>
      </trkpt>
      <trkpt lat="42.95828" lon="-0.06382">
        <ele>458.21</ele>
        <time>2013-08-14T07:45:57Z</time>
      </trkpt>
      <trkpt lat="42.95785" lon="-0.06423">
        <ele>459.17</ele>
        <time>2013-08-14T07:46:13Z</time>
      </trkpt>
      <trkpt lat="42.95751" lon="-0.06433">
        <ele>460.13</ele>
        <time>2013-08-14T07:46:24Z</time>
      </trkpt>
      <trkpt lat="42.95719" lon="-0.06435">
        <ele>461.57</ele>
        <time>2013-08-14T07:46:35Z</time>
      </trkpt>
      <trkpt lat="42.95672" lon="-0.06437">
        <ele>463.97</ele>
        <time>2013-08-14T07:46:50Z</time>
      </trkpt>
      <trkpt lat="42.95632" lon="-0.06431">
        <ele>466.86</ele>
        <time>2013-08-14T07:47:03Z</time>
      </trkpt>
      <trkpt lat="42.95597" lon="-0.0641">
        <ele>469.74</ele>
        <time>2013-08-14T07:47:16Z</time>
      </trkpt>
      <trkpt lat="42.95569" lon="-0.06389">
        <ele>472.63</ele>
        <time>2013-08-14T07:47:28Z</time>
      </trkpt>
      <trkpt lat="42.95538" lon="-0.06374">
        <ele>475.03</ele>
        <time>2013-08-14T07:47:40Z</time>
      </trkpt>
      <trkpt lat="42.95509" lon="-0.06364">
        <ele>476.95</ele>
        <time>2013-08-14T07:47:51Z</time>
      </trkpt>
      <trkpt lat="42.95492" lon="-0.06352">
        <ele>479.84</ele>
        <time>2013-08-14T07:47:59Z</time>
      </trkpt>
      <trkpt lat="42.95473" lon="-0.06323">
        <ele>482.72</ele>
        <time>2013-08-14T07:48:12Z</time>
      </trkpt>
      <trkpt lat="42.9547" lon="-0.06314">
        <ele>484.16</ele>
        <time>2013-08-14T07:48:15Z</time>
      </trkpt>
      <trkpt lat="42.95491" lon="-0.06277">
        <ele>485.12</ele>
        <time>2013-08-14T07:48:27Z</time>
      </trkpt>
      <trkpt lat="42.95514" lon="-0.06252">
        <ele>485.12</ele>
        <time>2013-08-14T07:48:34Z</time>
      </trkpt>
      <trkpt lat="42.95553" lon="-0.06208">
        <ele>484.16</ele>
        <time>2013-08-14T07:48:46Z</time>
      </trkpt>
      <trkpt lat="42.95568" lon="-0.06194">
        <ele>484.64</ele>
        <time>2013-08-14T07:48:50Z</time>
      </trkpt>
      <trkpt lat="42.95583" lon="-0.06159">
        <ele>485.12</ele>
        <time>2013-08-14T07:48:57Z</time>
      </trkpt>
      <trkpt lat="42.95589" lon="-0.06093">
        <ele>488.01</ele>
        <time>2013-08-14T07:49:13Z</time>
      </trkpt>
      <trkpt lat="42.95592" lon="-0.06035">
        <ele>490.89</ele>
        <time>2013-08-14T07:49:28Z</time>
      </trkpt>
      <trkpt lat="42.95578" lon="-0.05986">
        <ele>493.29</ele>
        <time>2013-08-14T07:49:41Z</time>
      </trkpt>
      <trkpt lat="42.9559" lon="-0.05963">
        <ele>493.77</ele>
        <time>2013-08-14T07:49:47Z</time>
      </trkpt>
      <trkpt lat="42.95593" lon="-0.05927">
        <ele>494.26</ele>
        <time>2013-08-14T07:49:54Z</time>
      </trkpt>
      <trkpt lat="42.95569" lon="-0.05877">
        <ele>497.14</ele>
        <time>2013-08-14T07:50:08Z</time>
      </trkpt>
      <trkpt lat="42.95538" lon="-0.05839">
        <ele>500.5</ele>
        <time>2013-08-14T07:50:23Z</time>
      </trkpt>
      <trkpt lat="42.95504" lon="-0.05825">
        <ele>503.87</ele>
        <time>2013-08-14T07:50:36Z</time>
      </trkpt>
      <trkpt lat="42.95484" lon="-0.05796">
        <ele>506.27</ele>
        <time>2013-08-14T07:50:49Z</time>
      </trkpt>
      <trkpt lat="42.95465" lon="-0.05785">
        <ele>509.16</ele>
        <time>2013-08-14T07:50:59Z</time>
      </trkpt>
      <trkpt lat="42.95435" lon="-0.05774">
        <ele>512.52</ele>
        <time>2013-08-14T07:51:13Z</time>
      </trkpt>
      <trkpt lat="42.95411" lon="-0.05762">
        <ele>515.88</ele>
        <time>2013-08-14T07:51:24Z</time>
      </trkpt>
      <trkpt lat="42.95386" lon="-0.05743">
        <ele>518.77</ele>
        <time>2013-08-14T07:51:38Z</time>
      </trkpt>
      <trkpt lat="42.95364" lon="-0.05727">
        <ele>522.13</ele>
        <time>2013-08-14T07:51:49Z</time>
      </trkpt>
      <trkpt lat="42.95336" lon="-0.05714">
        <ele>525.5</ele>
        <time>2013-08-14T07:52:02Z</time>
      </trkpt>
      <trkpt lat="42.95317" lon="-0.057">
        <ele>528.38</ele>
        <time>2013-08-14T07:52:13Z</time>
      </trkpt>
      <trkpt lat="42.95299" lon="-0.05677">
        <ele>531.75</ele>
        <time>2013-08-14T07:52:26Z</time>
      </trkpt>
      <trkpt lat="42.95286" lon="-0.05657">
        <ele>534.63</ele>
        <time>2013-08-14T07:52:37Z</time>
      </trkpt>
      <trkpt lat="42.95263" lon="-0.0565">
        <ele>537.51</ele>
        <time>2013-08-14T07:52:49Z</time>
      </trkpt>
      <trkpt lat="42.95251" lon="-0.0565">
        <ele>539.44</ele>
        <time>2013-08-14T07:52:55Z</time>
      </trkpt>
      <trkpt lat="42.95221" lon="-0.05638">
        <ele>542.8</ele>
        <time>2013-08-14T07:53:10Z</time>
      </trkpt>
      <trkpt lat="42.95196" lon="-0.05616">
        <ele>546.17</ele>
        <time>2013-08-14T07:53:25Z</time>
      </trkpt>
      <trkpt lat="42.95172" lon="-0.05598">
        <ele>549.53</ele>
        <time>2013-08-14T07:53:39Z</time>
      </trkpt>
      <trkpt lat="42.9515" lon="-0.05575">
        <ele>552.41</ele>
        <time>2013-08-14T07:53:53Z</time>
      </trkpt>
      <trkpt lat="42.95139" lon="-0.0556">
        <ele>554.82</ele>
        <time>2013-08-14T07:54:01Z</time>
      </trkpt>
      <trkpt lat="42.95117" lon="-0.05541">
        <ele>558.18</ele>
        <time>2013-08-14T07:54:15Z</time>
      </trkpt>
      <trkpt lat="42.95096" lon="-0.0551">
        <ele>561.07</ele>
        <time>2013-08-14T07:54:30Z</time>
      </trkpt>
      <trkpt lat="42.95093" lon="-0.05507">
        <ele>561.55</ele>
        <time>2013-08-14T07:54:32Z</time>
      </trkpt>
      <trkpt lat="42.95076" lon="-0.05481">
        <ele>564.91</ele>
        <time>2013-08-14T07:54:45Z</time>
      </trkpt>
      <trkpt lat="42.95063" lon="-0.05459">
        <ele>567.8</ele>
        <time>2013-08-14T07:54:57Z</time>
      </trkpt>
      <trkpt lat="42.95051" lon="-0.05435">
        <ele>571.16</ele>
        <time>2013-08-14T07:55:09Z</time>
      </trkpt>
      <trkpt lat="42.95041" lon="-0.05416">
        <ele>574.04</ele>
        <time>2013-08-14T07:55:19Z</time>
      </trkpt>
      <trkpt lat="42.9504" lon="-0.05387">
        <ele>577.41</ele>
        <time>2013-08-14T07:55:31Z</time>
      </trkpt>
      <trkpt lat="42.95059" lon="-0.05386">
        <ele>580.29</ele>
        <time>2013-08-14T07:55:43Z</time>
      </trkpt>
      <trkpt lat="42.95082" lon="-0.05387">
        <ele>583.66</ele>
        <time>2013-08-14T07:55:56Z</time>
      </trkpt>
      <trkpt lat="42.95104" lon="-0.05394">
        <ele>586.54</ele>
        <time>2013-08-14T07:56:08Z</time>
      </trkpt>
      <trkpt lat="42.95126" lon="-0.05412">
        <ele>589.43</ele>
        <time>2013-08-14T07:56:21Z</time>
      </trkpt>
      <trkpt lat="42.95143" lon="-0.05442">
        <ele>592.79</ele>
        <time>2013-08-14T07:56:34Z</time>
      </trkpt>
      <trkpt lat="42.95165" lon="-0.05469">
        <ele>594.71</ele>
        <time>2013-08-14T07:56:46Z</time>
      </trkpt>
      <trkpt lat="42.95194" lon="-0.0547">
        <ele>595.19</ele>
        <time>2013-08-14T07:56:57Z</time>
      </trkpt>
      <trkpt lat="42.9523" lon="-0.05454">
        <ele>595.19</ele>
        <time>2013-08-14T07:57:11Z</time>
      </trkpt>
      <trkpt lat="42.95262" lon="-0.05438">
        <ele>595.67</ele>
        <time>2013-08-14T07:57:23Z</time>
      </trkpt>
      <trkpt lat="42.95283" lon="-0.05403">
        <ele>596.64</ele>
        <time>2013-08-14T07:57:34Z</time>
      </trkpt>
      <trkpt lat="42.95296" lon="-0.05363">
        <ele>600</ele>
        <time>2013-08-14T07:57:45Z</time>
      </trkpt>
      <trkpt lat="42.95316" lon="-0.05302">
        <ele>601.92</ele>
        <time>2013-08-14T07:58:00Z</time>
      </trkpt>
      <trkpt lat="42.95317" lon="-0.0525">
        <ele>603.85</ele>
        <time>2013-08-14T07:58:12Z</time>
      </trkpt>
      <trkpt lat="42.95306" lon="-0.05205">
        <ele>607.21</ele>
        <time>2013-08-14T07:58:24Z</time>
      </trkpt>
      <trkpt lat="42.95296" lon="-0.05166">
        <ele>610.57</ele>
        <time>2013-08-14T07:58:37Z</time>
      </trkpt>
      <trkpt lat="42.95282" lon="-0.05128">
        <ele>612.98</ele>
        <time>2013-08-14T07:58:51Z</time>
      </trkpt>
      <trkpt lat="42.95275" lon="-0.05092">
        <ele>615.86</ele>
        <time>2013-08-14T07:59:03Z</time>
      </trkpt>
      <trkpt lat="42.95268" lon="-0.05084">
        <ele>617.78</ele>
        <time>2013-08-14T07:59:08Z</time>
      </trkpt>
      <trkpt lat="42.95259" lon="-0.05091">
        <ele>619.23</ele>
        <time>2013-08-14T07:59:13Z</time>
      </trkpt>
      <trkpt lat="42.95256" lon="-0.05125">
        <ele>622.11</ele>
        <time>2013-08-14T07:59:25Z</time>
      </trkpt>
      <trkpt lat="42.9525" lon="-0.05168">
        <ele>624.99</ele>
        <time>2013-08-14T07:59:37Z</time>
      </trkpt>
      <trkpt lat="42.95247" lon="-0.05198">
        <ele>626.92</ele>
        <time>2013-08-14T07:59:46Z</time>
      </trkpt>
      <trkpt lat="42.95235" lon="-0.05219">
        <ele>629.8</ele>
        <time>2013-08-14T07:59:55Z</time>
      </trkpt>
      <trkpt lat="42.95232" lon="-0.05222">
        <ele>630.76</ele>
        <time>2013-08-14T07:59:57Z</time>
      </trkpt>
      <trkpt lat="42.95212" lon="-0.05234">
        <ele>633.17</ele>
        <time>2013-08-14T08:00:09Z</time>
      </trkpt>
      <trkpt lat="42.95186" lon="-0.05243">
        <ele>636.53</ele>
        <time>2013-08-14T08:00:22Z</time>
      </trkpt>
      <trkpt lat="42.95161" lon="-0.05242">
        <ele>639.41</ele>
        <time>2013-08-14T08:00:34Z</time>
      </trkpt>
      <trkpt lat="42.95134" lon="-0.0521">
        <ele>642.3</ele>
        <time>2013-08-14T08:00:50Z</time>
      </trkpt>
      <trkpt lat="42.95115" lon="-0.05166">
        <ele>645.66</ele>
        <time>2013-08-14T08:01:04Z</time>
      </trkpt>
      <trkpt lat="42.95093" lon="-0.05121">
        <ele>648.55</ele>
        <time>2013-08-14T08:01:19Z</time>
      </trkpt>
      <trkpt lat="42.95075" lon="-0.05109">
        <ele>651.43</ele>
        <time>2013-08-14T08:01:28Z</time>
      </trkpt>
      <trkpt lat="42.95064" lon="-0.05103">
        <ele>652.87</ele>
        <time>2013-08-14T08:01:34Z</time>
      </trkpt>
      <trkpt lat="42.95073" lon="-0.05087">
        <ele>655.28</ele>
        <time>2013-08-14T08:01:43Z</time>
      </trkpt>
      <trkpt lat="42.95109" lon="-0.05085">
        <ele>658.64</ele>
        <time>2013-08-14T08:01:57Z</time>
      </trkpt>
      <trkpt lat="42.95135" lon="-0.05079">
        <ele>661.52</ele>
        <time>2013-08-14T08:02:09Z</time>
      </trkpt>
      <trkpt lat="42.95159" lon="-0.05064">
        <ele>664.89</ele>
        <time>2013-08-14T08:02:21Z</time>
      </trkpt>
      <trkpt lat="42.95179" lon="-0.05042">
        <ele>667.77</ele>
        <time>2013-08-14T08:02:33Z</time>
      </trkpt>
      <trkpt lat="42.95185" lon="-0.05031">
        <ele>668.25</ele>
        <time>2013-08-14T08:02:37Z</time>
      </trkpt>
      <trkpt lat="42.95174" lon="-0.05023">
        <ele>670.66</ele>
        <time>2013-08-14T08:02:45Z</time>
      </trkpt>
      <trkpt lat="42.95144" lon="-0.05036">
        <ele>672.1</ele>
        <time>2013-08-14T08:02:57Z</time>
      </trkpt>
      <trkpt lat="42.95113" lon="-0.05026">
        <ele>675.94</ele>
        <time>2013-08-14T08:03:10Z</time>
      </trkpt>
      <trkpt lat="42.95078" lon="-0.05033">
        <ele>679.31</ele>
        <time>2013-08-14T08:03:25Z</time>
      </trkpt>
      <trkpt lat="42.95054" lon="-0.05031">
        <ele>682.19</ele>
        <time>2013-08-14T08:03:38Z</time>
      </trkpt>
      <trkpt lat="42.95071" lon="-0.05004">
        <ele>685.56</ele>
        <time>2013-08-14T08:03:50Z</time>
      </trkpt>
      <trkpt lat="42.95101" lon="-0.04977">
        <ele>688.92</ele>
        <time>2013-08-14T08:04:05Z</time>
      </trkpt>
      <trkpt lat="42.95133" lon="-0.04947">
        <ele>692.29</ele>
        <time>2013-08-14T08:04:21Z</time>
      </trkpt>
      <trkpt lat="42.95156" lon="-0.04907">
        <ele>695.17</ele>
        <time>2013-08-14T08:04:37Z</time>
      </trkpt>
      <trkpt lat="42.95145" lon="-0.04878">
        <ele>698.53</ele>
        <time>2013-08-14T08:04:48Z</time>
      </trkpt>
      <trkpt lat="42.95124" lon="-0.04847">
        <ele>701.42</ele>
        <time>2013-08-14T08:05:01Z</time>
      </trkpt>
      <trkpt lat="42.95109" lon="-0.04814">
        <ele>704.78</ele>
        <time>2013-08-14T08:05:13Z</time>
      </trkpt>
      <trkpt lat="42.95107" lon="-0.04775">
        <ele>708.15</ele>
        <time>2013-08-14T08:05:25Z</time>
      </trkpt>
      <trkpt lat="42.95112" lon="-0.04725">
        <ele>711.03</ele>
        <time>2013-08-14T08:05:41Z</time>
      </trkpt>
      <trkpt lat="42.95112" lon="-0.04666">
        <ele>710.55</ele>
        <time>2013-08-14T08:05:54Z</time>
      </trkpt>
      <trkpt lat="42.95095" lon="-0.04611">
        <ele>712.47</ele>
        <time>2013-08-14T08:06:08Z</time>
      </trkpt>
      <trkpt lat="42.95067" lon="-0.04577">
        <ele>715.36</ele>
        <time>2013-08-14T08:06:22Z</time>
      </trkpt>
      <trkpt lat="42.9503" lon="-0.04589">
        <ele>718.72</ele>
        <time>2013-08-14T08:06:35Z</time>
      </trkpt>
      <trkpt lat="42.95014" lon="-0.04591">
        <ele>721.13</ele>
        <time>2013-08-14T08:06:42Z</time>
      </trkpt>
      <trkpt lat="42.94998" lon="-0.04546">
        <ele>723.53</ele>
        <time>2013-08-14T08:06:57Z</time>
      </trkpt>
      <trkpt lat="42.9499" lon="-0.04501">
        <ele>725.93</ele>
        <time>2013-08-14T08:07:09Z</time>
      </trkpt>
      <trkpt lat="42.95002" lon="-0.0444">
        <ele>727.86</ele>
        <time>2013-08-14T08:07:25Z</time>
      </trkpt>
      <trkpt lat="42.95005" lon="-0.04398">
        <ele>730.74</ele>
        <time>2013-08-14T08:07:38Z</time>
      </trkpt>
      <trkpt lat="42.95016" lon="-0.04377">
        <ele>734.1</ele>
        <time>2013-08-14T08:07:48Z</time>
      </trkpt>
      <trkpt lat="42.9502" lon="-0.04366">
        <ele>736.03</ele>
        <time>2013-08-14T08:07:53Z</time>
      </trkpt>
      <trkpt lat="42.95025" lon="-0.04349">
        <ele>738.91</ele>
        <time>2013-08-14T08:08:02Z</time>
      </trkpt>
      <trkpt lat="42.95031" lon="-0.04336">
        <ele>741.31</ele>
        <time>2013-08-14T08:08:09Z</time>
      </trkpt>
      <trkpt lat="42.95035" lon="-0.04334">
        <ele>742.76</ele>
        <time>2013-08-14T08:08:13Z</time>
      </trkpt>
      <trkpt lat="42.95046" lon="-0.04336">
        <ele>744.2</ele>
        <time>2013-08-14T08:08:20Z</time>
      </trkpt>
      <trkpt lat="42.95074" lon="-0.0432">
        <ele>747.08</ele>
        <time>2013-08-14T08:08:36Z</time>
      </trkpt>
      <trkpt lat="42.95083" lon="-0.04293">
        <ele>749.97</ele>
        <time>2013-08-14T08:08:49Z</time>
      </trkpt>
      <trkpt lat="42.95089" lon="-0.04264">
        <ele>752.85</ele>
        <time>2013-08-14T08:09:01Z</time>
      </trkpt>
      <trkpt lat="42.95087" lon="-0.04233">
        <ele>755.73</ele>
        <time>2013-08-14T08:09:13Z</time>
      </trkpt>
      <trkpt lat="42.95089" lon="-0.04217">
        <ele>757.18</ele>
        <time>2013-08-14T08:09:19Z</time>
      </trkpt>
      <trkpt lat="42.95089" lon="-0.0417">
        <ele>760.54</ele>
        <time>2013-08-14T08:09:36Z</time>
      </trkpt>
      <trkpt lat="42.95087" lon="-0.04146">
        <ele>763.42</ele>
        <time>2013-08-14T08:09:48Z</time>
      </trkpt>
      <trkpt lat="42.95081" lon="-0.04123">
        <ele>766.31</ele>
        <time>2013-08-14T08:10:00Z</time>
      </trkpt>
      <trkpt lat="42.95076" lon="-0.04111">
        <ele>768.71</ele>
        <time>2013-08-14T08:10:07Z</time>
      </trkpt>
      <trkpt lat="42.95075" lon="-0.04106">
        <ele>769.67</ele>
        <time>2013-08-14T08:10:10Z</time>
      </trkpt>
      <trkpt lat="42.9507" lon="-0.04086">
        <ele>773.04</ele>
        <time>2013-08-14T08:10:22Z</time>
      </trkpt>
      <trkpt lat="42.95067" lon="-0.04063">
        <ele>776.4</ele>
        <time>2013-08-14T08:10:34Z</time>
      </trkpt>
      <trkpt lat="42.95067" lon="-0.04054">
        <ele>777.84</ele>
        <time>2013-08-14T08:10:39Z</time>
      </trkpt>
      <trkpt lat="42.95067" lon="-0.04041">
        <ele>779.29</ele>
        <time>2013-08-14T08:10:47Z</time>
      </trkpt>
      <trkpt lat="42.9507" lon="-0.04027">
        <ele>781.69</ele>
        <time>2013-08-14T08:10:55Z</time>
      </trkpt>
      <trkpt lat="42.95067" lon="-0.04">
        <ele>785.05</ele>
        <time>2013-08-14T08:11:09Z</time>
      </trkpt>
      <trkpt lat="42.95059" lon="-0.03969">
        <ele>787.46</ele>
        <time>2013-08-14T08:11:22Z</time>
      </trkpt>
      <trkpt lat="42.95059" lon="-0.03945">
        <ele>791.3</ele>
        <time>2013-08-14T08:11:34Z</time>
      </trkpt>
      <trkpt lat="42.9506" lon="-0.03923">
        <ele>794.19</ele>
        <time>2013-08-14T08:11:46Z</time>
      </trkpt>
      <trkpt lat="42.95061" lon="-0.03917">
        <ele>795.63</ele>
        <time>2013-08-14T08:11:50Z</time>
      </trkpt>
      <trkpt lat="42.95062" lon="-0.03907">
        <ele>796.59</ele>
        <time>2013-08-14T08:11:55Z</time>
      </trkpt>
      <trkpt lat="42.95062" lon="-0.03898">
        <ele>798.03</ele>
        <time>2013-08-14T08:12:00Z</time>
      </trkpt>
      <trkpt lat="42.95061" lon="-0.03893">
        <ele>799.47</ele>
        <time>2013-08-14T08:12:04Z</time>
      </trkpt>
      <trkpt lat="42.9506" lon="-0.0389">
        <ele>799.47</ele>
        <time>2013-08-14T08:12:06Z</time>
      </trkpt>
      <trkpt lat="42.9506" lon="-0.03884">
        <ele>800.44</ele>
        <time>2013-08-14T08:12:10Z</time>
      </trkpt>
      <trkpt lat="42.9506" lon="-0.0387">
        <ele>802.36</ele>
        <time>2013-08-14T08:12:18Z</time>
      </trkpt>
      <trkpt lat="42.95059" lon="-0.03851">
        <ele>806.2</ele>
        <time>2013-08-14T08:12:29Z</time>
      </trkpt>
      <trkpt lat="42.95057" lon="-0.03828">
        <ele>809.09</ele>
        <time>2013-08-14T08:12:41Z</time>
      </trkpt>
      <trkpt lat="42.95052" lon="-0.03805">
        <ele>812.45</ele>
        <time>2013-08-14T08:12:53Z</time>
      </trkpt>
      <trkpt lat="42.95047" lon="-0.03779">
        <ele>815.34</ele>
        <time>2013-08-14T08:13:06Z</time>
      </trkpt>
      <trkpt lat="42.95046" lon="-0.03767">
        <ele>817.26</ele>
        <time>2013-08-14T08:13:12Z</time>
      </trkpt>
      <trkpt lat="42.95043" lon="-0.03751">
        <ele>819.18</ele>
        <time>2013-08-14T08:13:22Z</time>
      </trkpt>
      <trkpt lat="42.95039" lon="-0.03733">
        <ele>822.06</ele>
        <time>2013-08-14T08:13:32Z</time>
      </trkpt>
      <trkpt lat="42.95034" lon="-0.03722">
        <ele>823.51</ele>
        <time>2013-08-14T08:13:39Z</time>
      </trkpt>
      <trkpt lat="42.95029" lon="-0.03702">
        <ele>826.39</ele>
        <time>2013-08-14T08:13:50Z</time>
      </trkpt>
      <trkpt lat="42.95026" lon="-0.03697">
        <ele>826.39</ele>
        <time>2013-08-14T08:13:55Z</time>
      </trkpt>
      <trkpt lat="42.95024" lon="-0.03698">
        <ele>827.35</ele>
        <time>2013-08-14T08:13:57Z</time>
      </trkpt>
      <trkpt lat="42.95021" lon="-0.03701">
        <ele>827.35</ele>
        <time>2013-08-14T08:14:00Z</time>
      </trkpt>
      <trkpt lat="42.9501" lon="-0.03712">
        <ele>829.76</ele>
        <time>2013-08-14T08:14:10Z</time>
      </trkpt>
      <trkpt lat="42.95013" lon="-0.03732">
        <ele>833.12</ele>
        <time>2013-08-14T08:14:21Z</time>
      </trkpt>
      <trkpt lat="42.95012" lon="-0.03733">
        <ele>833.6</ele>
        <time>2013-08-14T08:14:22Z</time>
      </trkpt>
      <trkpt lat="42.95013" lon="-0.03755">
        <ele>835.52</ele>
        <time>2013-08-14T08:14:34Z</time>
      </trkpt>
      <trkpt lat="42.95008" lon="-0.03776">
        <ele>838.89</ele>
        <time>2013-08-14T08:14:47Z</time>
      </trkpt>
      <trkpt lat="42.95005" lon="-0.038">
        <ele>841.77</ele>
        <time>2013-08-14T08:14:59Z</time>
      </trkpt>
      <trkpt lat="42.95004" lon="-0.03825">
        <ele>845.62</ele>
        <time>2013-08-14T08:15:12Z</time>
      </trkpt>
      <trkpt lat="42.95004" lon="-0.03845">
        <ele>848.5</ele>
        <time>2013-08-14T08:15:22Z</time>
      </trkpt>
      <trkpt lat="42.95007" lon="-0.03858">
        <ele>849.94</ele>
        <time>2013-08-14T08:15:27Z</time>
      </trkpt>
      <trkpt lat="42.95008" lon="-0.03861">
        <ele>850.9</ele>
        <time>2013-08-14T08:15:29Z</time>
      </trkpt>
      <trkpt lat="42.94999" lon="-0.03883">
        <ele>854.27</ele>
        <time>2013-08-14T08:15:41Z</time>
      </trkpt>
      <trkpt lat="42.94984" lon="-0.03898">
        <ele>857.15</ele>
        <time>2013-08-14T08:15:53Z</time>
      </trkpt>
      <trkpt lat="42.94967" lon="-0.03902">
        <ele>860.52</ele>
        <time>2013-08-14T08:16:05Z</time>
      </trkpt>
      <trkpt lat="42.94965" lon="-0.03903">
        <ele>860.52</ele>
        <time>2013-08-14T08:16:06Z</time>
      </trkpt>
      <trkpt lat="42.94935" lon="-0.03901">
        <ele>864.36</ele>
        <time>2013-08-14T08:16:20Z</time>
      </trkpt>
      <trkpt lat="42.9492" lon="-0.03901">
        <ele>866.29</ele>
        <time>2013-08-14T08:16:29Z</time>
      </trkpt>
      <trkpt lat="42.94911" lon="-0.03905">
        <ele>868.69</ele>
        <time>2013-08-14T08:16:37Z</time>
      </trkpt>
      <trkpt lat="42.94902" lon="-0.03906">
        <ele>870.61</ele>
        <time>2013-08-14T08:16:45Z</time>
      </trkpt>
      <trkpt lat="42.94888" lon="-0.03895">
        <ele>873.98</ele>
        <time>2013-08-14T08:16:58Z</time>
      </trkpt>
      <trkpt lat="42.94884" lon="-0.03892">
        <ele>874.94</ele>
        <time>2013-08-14T08:17:02Z</time>
      </trkpt>
      <trkpt lat="42.94872" lon="-0.03883">
        <ele>877.82</ele>
        <time>2013-08-14T08:17:13Z</time>
      </trkpt>
      <trkpt lat="42.94857" lon="-0.03877">
        <ele>881.19</ele>
        <time>2013-08-14T08:17:26Z</time>
      </trkpt>
      <trkpt lat="42.94855" lon="-0.03876">
        <ele>882.15</ele>
        <time>2013-08-14T08:17:28Z</time>
      </trkpt>
      <trkpt lat="42.94844" lon="-0.03872">
        <ele>884.07</ele>
        <time>2013-08-14T08:17:37Z</time>
      </trkpt>
      <trkpt lat="42.94829" lon="-0.0387">
        <ele>886.95</ele>
        <time>2013-08-14T08:17:48Z</time>
      </trkpt>
      <trkpt lat="42.94828" lon="-0.03869">
        <ele>886.47</ele>
        <time>2013-08-14T08:17:49Z</time>
      </trkpt>
      <trkpt lat="42.94818" lon="-0.03858">
        <ele>888.88</ele>
        <time>2013-08-14T08:17:57Z</time>
      </trkpt>
      <trkpt lat="42.94807" lon="-0.03852">
        <ele>890.32</ele>
        <time>2013-08-14T08:18:05Z</time>
      </trkpt>
      <trkpt lat="42.94802" lon="-0.03849">
        <ele>891.76</ele>
        <time>2013-08-14T08:18:09Z</time>
      </trkpt>
      <trkpt lat="42.94804" lon="-0.03832">
        <ele>893.68</ele>
        <time>2013-08-14T08:18:19Z</time>
      </trkpt>
      <trkpt lat="42.94811" lon="-0.0383">
        <ele>894.64</ele>
        <time>2013-08-14T08:18:24Z</time>
      </trkpt>
      <trkpt lat="42.9482" lon="-0.03829">
        <ele>896.57</ele>
        <time>2013-08-14T08:18:31Z</time>
      </trkpt>
      <trkpt lat="42.94825" lon="-0.03825">
        <ele>898.01</ele>
        <time>2013-08-14T08:18:37Z</time>
      </trkpt>
      <trkpt lat="42.94839" lon="-0.03816">
        <ele>901.37</ele>
        <time>2013-08-14T08:18:50Z</time>
      </trkpt>
      <trkpt lat="42.9484" lon="-0.03812">
        <ele>901.37</ele>
        <time>2013-08-14T08:18:52Z</time>
      </trkpt>
      <trkpt lat="42.94837" lon="-0.03806">
        <ele>902.33</ele>
        <time>2013-08-14T08:18:56Z</time>
      </trkpt>
      <trkpt lat="42.94823" lon="-0.03804">
        <ele>905.22</ele>
        <time>2013-08-14T08:19:09Z</time>
      </trkpt>
      <trkpt lat="42.94819" lon="-0.03805">
        <ele>906.18</ele>
        <time>2013-08-14T08:19:13Z</time>
      </trkpt>
      <trkpt lat="42.94808" lon="-0.03806">
        <ele>908.1</ele>
        <time>2013-08-14T08:19:21Z</time>
      </trkpt>
      <trkpt lat="42.94788" lon="-0.03808">
        <ele>911.47</ele>
        <time>2013-08-14T08:19:35Z</time>
      </trkpt>
      <trkpt lat="42.94773" lon="-0.03794">
        <ele>914.83</ele>
        <time>2013-08-14T08:19:48Z</time>
      </trkpt>
      <trkpt lat="42.94766" lon="-0.03776">
        <ele>917.24</ele>
        <time>2013-08-14T08:19:59Z</time>
      </trkpt>
      <trkpt lat="42.94757" lon="-0.03759">
        <ele>920.6</ele>
        <time>2013-08-14T08:20:12Z</time>
      </trkpt>
      <trkpt lat="42.94742" lon="-0.03752">
        <ele>923.48</ele>
        <time>2013-08-14T08:20:24Z</time>
      </trkpt>
      <trkpt lat="42.9474" lon="-0.03753">
        <ele>923.48</ele>
        <time>2013-08-14T08:20:26Z</time>
      </trkpt>
      <trkpt lat="42.94735" lon="-0.03751">
        <ele>924.93</ele>
        <time>2013-08-14T08:20:31Z</time>
      </trkpt>
      <trkpt lat="42.94733" lon="-0.03748">
        <ele>925.41</ele>
        <time>2013-08-14T08:20:33Z</time>
      </trkpt>
      <trkpt lat="42.94732" lon="-0.03745">
        <ele>925.89</ele>
        <time>2013-08-14T08:20:36Z</time>
      </trkpt>
      <trkpt lat="42.94738" lon="-0.03743">
        <ele>927.33</ele>
        <time>2013-08-14T08:20:42Z</time>
      </trkpt>
      <trkpt lat="42.94752" lon="-0.03743">
        <ele>930.21</ele>
        <time>2013-08-14T08:20:55Z</time>
      </trkpt>
      <trkpt lat="42.94763" lon="-0.0374">
        <ele>932.14</ele>
        <time>2013-08-14T08:21:04Z</time>
      </trkpt>
      <trkpt lat="42.94781" lon="-0.03735">
        <ele>934.06</ele>
        <time>2013-08-14T08:21:15Z</time>
      </trkpt>
      <trkpt lat="42.94791" lon="-0.03735">
        <ele>935.98</ele>
        <time>2013-08-14T08:21:22Z</time>
      </trkpt>
      <trkpt lat="42.94799" lon="-0.03729">
        <ele>937.42</ele>
        <time>2013-08-14T08:21:28Z</time>
      </trkpt>
      <trkpt lat="42.94807" lon="-0.03723">
        <ele>939.83</ele>
        <time>2013-08-14T08:21:36Z</time>
      </trkpt>
      <trkpt lat="42.94821" lon="-0.03715">
        <ele>942.71</ele>
        <time>2013-08-14T08:21:47Z</time>
      </trkpt>
      <trkpt lat="42.94835" lon="-0.03709">
        <ele>946.56</ele>
        <time>2013-08-14T08:21:59Z</time>
      </trkpt>
      <trkpt lat="42.9484" lon="-0.03705">
        <ele>947.52</ele>
        <time>2013-08-14T08:22:04Z</time>
      </trkpt>
      <trkpt lat="42.9485" lon="-0.03686">
        <ele>950.88</ele>
        <time>2013-08-14T08:22:17Z</time>
      </trkpt>
      <trkpt lat="42.94851" lon="-0.03682">
        <ele>950.88</ele>
        <time>2013-08-14T08:22:20Z</time>
      </trkpt>
      <trkpt lat="42.94856" lon="-0.03652">
        <ele>954.25</ele>
        <time>2013-08-14T08:22:35Z</time>
      </trkpt>
      <trkpt lat="42.94855" lon="-0.03625">
        <ele>957.61</ele>
        <time>2013-08-14T08:22:48Z</time>
      </trkpt>
      <trkpt lat="42.94858" lon="-0.0361">
        <ele>959.53</ele>
        <time>2013-08-14T08:22:57Z</time>
      </trkpt>
      <trkpt lat="42.94858" lon="-0.03601">
        <ele>960.49</ele>
        <time>2013-08-14T08:23:02Z</time>
      </trkpt>
      <trkpt lat="42.9485" lon="-0.03594">
        <ele>961.46</ele>
        <time>2013-08-14T08:23:10Z</time>
      </trkpt>
      <trkpt lat="42.94852" lon="-0.0359">
        <ele>961.94</ele>
        <time>2013-08-14T08:23:12Z</time>
      </trkpt>
      <trkpt lat="42.94853" lon="-0.03579">
        <ele>962.42</ele>
        <time>2013-08-14T08:23:16Z</time>
      </trkpt>
      <trkpt lat="42.94856" lon="-0.03564">
        <ele>965.78</ele>
        <time>2013-08-14T08:23:29Z</time>
      </trkpt>
      <trkpt lat="42.94845" lon="-0.03606">
        <ele>967.7</ele>
        <time>2013-08-14T08:23:38Z</time>
      </trkpt>
      <trkpt lat="42.94837" lon="-0.03621">
        <ele>968.18</ele>
        <time>2013-08-14T08:23:42Z</time>
      </trkpt>
      <trkpt lat="42.94828" lon="-0.03634">
        <ele>969.63</ele>
        <time>2013-08-14T08:23:47Z</time>
      </trkpt>
      <trkpt lat="42.9482" lon="-0.03646">
        <ele>970.59</ele>
        <time>2013-08-14T08:23:52Z</time>
      </trkpt>
      <trkpt lat="42.94804" lon="-0.03655">
        <ele>972.99</ele>
        <time>2013-08-14T08:24:03Z</time>
      </trkpt>
      <trkpt lat="42.94802" lon="-0.03654">
        <ele>973.47</ele>
        <time>2013-08-14T08:24:05Z</time>
      </trkpt>
      <trkpt lat="42.94785" lon="-0.03651">
        <ele>976.84</ele>
        <time>2013-08-14T08:24:17Z</time>
      </trkpt>
      <trkpt lat="42.9477" lon="-0.03649">
        <ele>980.2</ele>
        <time>2013-08-14T08:24:30Z</time>
      </trkpt>
      <trkpt lat="42.94757" lon="-0.0365">
        <ele>982.6</ele>
        <time>2013-08-14T08:24:43Z</time>
      </trkpt>
      <trkpt lat="42.9475" lon="-0.03652">
        <ele>984.05</ele>
        <time>2013-08-14T08:24:47Z</time>
      </trkpt>
      <trkpt lat="42.94738" lon="-0.03656">
        <ele>985.97</ele>
        <time>2013-08-14T08:24:56Z</time>
      </trkpt>
      <trkpt lat="42.94715" lon="-0.03661">
        <ele>987.41</ele>
        <time>2013-08-14T08:25:11Z</time>
      </trkpt>
      <trkpt lat="42.94698" lon="-0.03652">
        <ele>988.37</ele>
        <time>2013-08-14T08:25:24Z</time>
      </trkpt>
      <trkpt lat="42.94683" lon="-0.03653">
        <ele>991.26</ele>
        <time>2013-08-14T08:25:35Z</time>
      </trkpt>
      <trkpt lat="42.94669" lon="-0.03654">
        <ele>994.62</ele>
        <time>2013-08-14T08:25:47Z</time>
      </trkpt>
      <trkpt lat="42.94654" lon="-0.03656">
        <ele>997.02</ele>
        <time>2013-08-14T08:25:59Z</time>
      </trkpt>
      <trkpt lat="42.94643" lon="-0.03655">
        <ele>999.91</ele>
        <time>2013-08-14T08:26:10Z</time>
      </trkpt>
      <trkpt lat="42.9462" lon="-0.03655">
        <ele>1003.27</ele>
        <time>2013-08-14T08:26:24Z</time>
      </trkpt>
      <trkpt lat="42.94589" lon="-0.0363">
        <ele>1005.2</ele>
        <time>2013-08-14T08:26:38Z</time>
      </trkpt>
      <trkpt lat="42.94584" lon="-0.03625">
        <ele>1005.2</ele>
        <time>2013-08-14T08:26:41Z</time>
      </trkpt>
      <trkpt lat="42.94574" lon="-0.03619">
        <ele>1006.16</ele>
        <time>2013-08-14T08:26:46Z</time>
      </trkpt>
      <trkpt lat="42.94568" lon="-0.03614">
        <ele>1006.64</ele>
        <time>2013-08-14T08:26:49Z</time>
      </trkpt>
      <trkpt lat="42.94548" lon="-0.03611">
        <ele>1010.48</ele>
        <time>2013-08-14T08:27:01Z</time>
      </trkpt>
      <trkpt lat="42.94546" lon="-0.03609">
        <ele>1010.96</ele>
        <time>2013-08-14T08:27:03Z</time>
      </trkpt>
      <trkpt lat="42.94544" lon="-0.03595">
        <ele>1012.89</ele>
        <time>2013-08-14T08:27:11Z</time>
      </trkpt>
      <trkpt lat="42.94551" lon="-0.03587">
        <ele>1014.81</ele>
        <time>2013-08-14T08:27:18Z</time>
      </trkpt>
      <trkpt lat="42.94566" lon="-0.03562">
        <ele>1016.73</ele>
        <time>2013-08-14T08:27:32Z</time>
      </trkpt>
      <trkpt lat="42.94568" lon="-0.03558">
        <ele>1017.69</ele>
        <time>2013-08-14T08:27:34Z</time>
      </trkpt>
      <trkpt lat="42.94588" lon="-0.03543">
        <ele>1020.58</ele>
        <time>2013-08-14T08:27:49Z</time>
      </trkpt>
      <trkpt lat="42.94593" lon="-0.03542">
        <ele>1021.54</ele>
        <time>2013-08-14T08:27:53Z</time>
      </trkpt>
      <trkpt lat="42.9461" lon="-0.03541">
        <ele>1024.9</ele>
        <time>2013-08-14T08:28:06Z</time>
      </trkpt>
      <trkpt lat="42.9462" lon="-0.03534">
        <ele>1026.34</ele>
        <time>2013-08-14T08:28:13Z</time>
      </trkpt>
      <trkpt lat="42.94624" lon="-0.03528">
        <ele>1026.83</ele>
        <time>2013-08-14T08:28:18Z</time>
      </trkpt>
      <trkpt lat="42.94641" lon="-0.03514">
        <ele>1030.67</ele>
        <time>2013-08-14T08:28:33Z</time>
      </trkpt>
      <trkpt lat="42.94653" lon="-0.03505">
        <ele>1032.11</ele>
        <time>2013-08-14T08:28:42Z</time>
      </trkpt>
      <trkpt lat="42.94672" lon="-0.03497">
        <ele>1035.48</ele>
        <time>2013-08-14T08:28:55Z</time>
      </trkpt>
      <trkpt lat="42.9469" lon="-0.03486">
        <ele>1037.4</ele>
        <time>2013-08-14T08:29:08Z</time>
      </trkpt>
      <trkpt lat="42.94694" lon="-0.03477">
        <ele>1038.36</ele>
        <time>2013-08-14T08:29:15Z</time>
      </trkpt>
      <trkpt lat="42.94695" lon="-0.03461">
        <ele>1040.76</ele>
        <time>2013-08-14T08:29:22Z</time>
      </trkpt>
      <trkpt lat="42.94697" lon="-0.03432">
        <ele>1043.65</ele>
        <time>2013-08-14T08:29:35Z</time>
      </trkpt>
      <trkpt lat="42.947" lon="-0.03423">
        <ele>1045.09</ele>
        <time>2013-08-14T08:29:41Z</time>
      </trkpt>
      <trkpt lat="42.947" lon="-0.03387">
        <ele>1047.49</ele>
        <time>2013-08-14T08:29:56Z</time>
      </trkpt>
      <trkpt lat="42.94698" lon="-0.03382">
        <ele>1047.97</ele>
        <time>2013-08-14T08:29:58Z</time>
      </trkpt>
      <trkpt lat="42.94699" lon="-0.03365">
        <ele>1048.94</ele>
        <time>2013-08-14T08:30:04Z</time>
      </trkpt>
      <trkpt lat="42.94709" lon="-0.03347">
        <ele>1051.34</ele>
        <time>2013-08-14T08:30:15Z</time>
      </trkpt>
      <trkpt lat="42.94712" lon="-0.03341">
        <ele>1052.3</ele>
        <time>2013-08-14T08:30:19Z</time>
      </trkpt>
      <trkpt lat="42.9472" lon="-0.03339">
        <ele>1052.78</ele>
        <time>2013-08-14T08:30:22Z</time>
      </trkpt>
      <trkpt lat="42.94743" lon="-0.03351">
        <ele>1054.7</ele>
        <time>2013-08-14T08:30:37Z</time>
      </trkpt>
      <trkpt lat="42.94745" lon="-0.03355">
        <ele>1055.18</ele>
        <time>2013-08-14T08:30:39Z</time>
      </trkpt>
      <trkpt lat="42.94765" lon="-0.03368">
        <ele>1058.07</ele>
        <time>2013-08-14T08:30:52Z</time>
      </trkpt>
      <trkpt lat="42.94784" lon="-0.03365">
        <ele>1060.95</ele>
        <time>2013-08-14T08:31:03Z</time>
      </trkpt>
      <trkpt lat="42.94786" lon="-0.03365">
        <ele>1061.43</ele>
        <time>2013-08-14T08:31:05Z</time>
      </trkpt>
      <trkpt lat="42.94789" lon="-0.03364">
        <ele>1061.91</ele>
        <time>2013-08-14T08:31:08Z</time>
      </trkpt>
      <trkpt lat="42.94792" lon="-0.03357">
        <ele>1062.87</ele>
        <time>2013-08-14T08:31:12Z</time>
      </trkpt>
      <trkpt lat="42.94792" lon="-0.0334">
        <ele>1064.8</ele>
        <time>2013-08-14T08:31:20Z</time>
      </trkpt>
      <trkpt lat="42.94788" lon="-0.03314">
        <ele>1066.72</ele>
        <time>2013-08-14T08:31:33Z</time>
      </trkpt>
      <trkpt lat="42.94778" lon="-0.03287">
        <ele>1070.08</ele>
        <time>2013-08-14T08:31:46Z</time>
      </trkpt>
      <trkpt lat="42.94774" lon="-0.03266">
        <ele>1072.01</ele>
        <time>2013-08-14T08:31:56Z</time>
      </trkpt>
      <trkpt lat="42.94766" lon="-0.03234">
        <ele>1075.37</ele>
        <time>2013-08-14T08:32:11Z</time>
      </trkpt>
      <trkpt lat="42.94749" lon="-0.03207">
        <ele>1077.78</ele>
        <time>2013-08-14T08:32:25Z</time>
      </trkpt>
      <trkpt lat="42.94739" lon="-0.03209">
        <ele>1077.78</ele>
        <time>2013-08-14T08:32:30Z</time>
      </trkpt>
      <trkpt lat="42.94727" lon="-0.03227">
        <ele>1079.7</ele>
        <time>2013-08-14T08:32:39Z</time>
      </trkpt>
      <trkpt lat="42.94719" lon="-0.03241">
        <ele>1081.62</ele>
        <time>2013-08-14T08:32:47Z</time>
      </trkpt>
      <trkpt lat="42.94714" lon="-0.03236">
        <ele>1082.58</ele>
        <time>2013-08-14T08:32:51Z</time>
      </trkpt>
      <trkpt lat="42.94712" lon="-0.032">
        <ele>1084.99</ele>
        <time>2013-08-14T08:33:06Z</time>
      </trkpt>
      <trkpt lat="42.94727" lon="-0.03164">
        <ele>1085.47</ele>
        <time>2013-08-14T08:33:17Z</time>
      </trkpt>
      <trkpt lat="42.94739" lon="-0.03146">
        <ele>1088.35</ele>
        <time>2013-08-14T08:33:24Z</time>
      </trkpt>
      <trkpt lat="42.9474" lon="-0.0314">
        <ele>1089.31</ele>
        <time>2013-08-14T08:33:26Z</time>
      </trkpt>
      <trkpt lat="42.94735" lon="-0.03121">
        <ele>1091.23</ele>
        <time>2013-08-14T08:33:33Z</time>
      </trkpt>
      <trkpt lat="42.94736" lon="-0.03115">
        <ele>1091.71</ele>
        <time>2013-08-14T08:33:35Z</time>
      </trkpt>
      <trkpt lat="42.94741" lon="-0.03097">
        <ele>1094.12</ele>
        <time>2013-08-14T08:33:42Z</time>
      </trkpt>
      <trkpt lat="42.94731" lon="-0.03051">
        <ele>1096.52</ele>
        <time>2013-08-14T08:33:57Z</time>
      </trkpt>
      <trkpt lat="42.9473" lon="-0.02998">
        <ele>1097</ele>
        <time>2013-08-14T08:34:11Z</time>
      </trkpt>
      <trkpt lat="42.94728" lon="-0.02951">
        <ele>1096.04</ele>
        <time>2013-08-14T08:34:23Z</time>
      </trkpt>
      <trkpt lat="42.94727" lon="-0.02946">
        <ele>1096.52</ele>
        <time>2013-08-14T08:34:24Z</time>
      </trkpt>
      <trkpt lat="42.94723" lon="-0.02928">
        <ele>1094.6</ele>
        <time>2013-08-14T08:34:27Z</time>
      </trkpt>
      <trkpt lat="42.94721" lon="-0.029">
        <ele>1092.2</ele>
        <time>2013-08-14T08:34:32Z</time>
      </trkpt>
      <trkpt lat="42.94718" lon="-0.02876">
        <ele>1089.31</ele>
        <time>2013-08-14T08:34:36Z</time>
      </trkpt>
      <trkpt lat="42.94716" lon="-0.02852">
        <ele>1087.87</ele>
        <time>2013-08-14T08:34:40Z</time>
      </trkpt>
      <trkpt lat="42.94712" lon="-0.02834">
        <ele>1086.43</ele>
        <time>2013-08-14T08:34:43Z</time>
      </trkpt>
      <trkpt lat="42.94716" lon="-0.02778">
        <ele>1084.99</ele>
        <time>2013-08-14T08:34:54Z</time>
      </trkpt>
      <trkpt lat="42.94717" lon="-0.02772">
        <ele>1084.99</ele>
        <time>2013-08-14T08:34:55Z</time>
      </trkpt>
      <trkpt lat="42.94729" lon="-0.02748">
        <ele>1081.14</ele>
        <time>2013-08-14T08:35:00Z</time>
      </trkpt>
      <trkpt lat="42.94733" lon="-0.02745">
        <ele>1080.66</ele>
        <time>2013-08-14T08:35:01Z</time>
      </trkpt>
      <trkpt lat="42.94736" lon="-0.02743">
        <ele>1079.7</ele>
        <time>2013-08-14T08:35:02Z</time>
      </trkpt>
      <trkpt lat="42.94762" lon="-0.02739">
        <ele>1076.81</ele>
        <time>2013-08-14T08:35:08Z</time>
      </trkpt>
      <trkpt lat="42.9477" lon="-0.02739">
        <ele>1075.85</ele>
        <time>2013-08-14T08:35:10Z</time>
      </trkpt>
      <trkpt lat="42.94797" lon="-0.02711">
        <ele>1072.01</ele>
        <time>2013-08-14T08:35:18Z</time>
      </trkpt>
      <trkpt lat="42.94796" lon="-0.02704">
        <ele>1071.53</ele>
        <time>2013-08-14T08:35:19Z</time>
      </trkpt>
      <trkpt lat="42.94794" lon="-0.02684">
        <ele>1069.6</ele>
        <time>2013-08-14T08:35:22Z</time>
      </trkpt>
      <trkpt lat="42.94796" lon="-0.02647">
        <ele>1065.28</ele>
        <time>2013-08-14T08:35:27Z</time>
      </trkpt>
      <trkpt lat="42.94798" lon="-0.02624">
        <ele>1061.91</ele>
        <time>2013-08-14T08:35:30Z</time>
      </trkpt>
      <trkpt lat="42.94798" lon="-0.02616">
        <ele>1061.43</ele>
        <time>2013-08-14T08:35:31Z</time>
      </trkpt>
      <trkpt lat="42.94796" lon="-0.02583">
        <ele>1060.47</ele>
        <time>2013-08-14T08:35:36Z</time>
      </trkpt>
      <trkpt lat="42.94807" lon="-0.02529">
        <ele>1059.99</ele>
        <time>2013-08-14T08:35:48Z</time>
      </trkpt>
      <trkpt lat="42.94826" lon="-0.02504">
        <ele>1061.43</ele>
        <time>2013-08-14T08:35:58Z</time>
      </trkpt>
      <trkpt lat="42.94867" lon="-0.02502">
        <ele>1060.47</ele>
        <time>2013-08-14T08:36:10Z</time>
      </trkpt>
      <trkpt lat="42.94892" lon="-0.0248">
        <ele>1060.95</ele>
        <time>2013-08-14T08:36:20Z</time>
      </trkpt>
      <trkpt lat="42.94918" lon="-0.02447">
        <ele>1062.39</ele>
        <time>2013-08-14T08:36:32Z</time>
      </trkpt>
      <trkpt lat="42.94951" lon="-0.02457">
        <ele>1062.39</ele>
        <time>2013-08-14T08:36:43Z</time>
      </trkpt>
      <trkpt lat="42.94974" lon="-0.02469">
        <ele>1062.87</ele>
        <time>2013-08-14T08:36:53Z</time>
      </trkpt>
      <trkpt lat="42.95009" lon="-0.02465">
        <ele>1063.36</ele>
        <time>2013-08-14T08:37:04Z</time>
      </trkpt>
      <trkpt lat="42.95013" lon="-0.02444">
        <ele>1064.32</ele>
        <time>2013-08-14T08:37:10Z</time>
      </trkpt>
      <trkpt lat="42.9501" lon="-0.02437">
        <ele>1063.84</ele>
        <time>2013-08-14T08:37:12Z</time>
      </trkpt>
      <trkpt lat="42.95006" lon="-0.02371">
        <ele>1066.24</ele>
        <time>2013-08-14T08:37:29Z</time>
      </trkpt>
      <trkpt lat="42.95002" lon="-0.02323">
        <ele>1067.68</ele>
        <time>2013-08-14T08:37:42Z</time>
      </trkpt>
      <trkpt lat="42.95" lon="-0.0227">
        <ele>1069.12</ele>
        <time>2013-08-14T08:37:56Z</time>
      </trkpt>
      <trkpt lat="42.94985" lon="-0.02224">
        <ele>1071.05</ele>
        <time>2013-08-14T08:38:08Z</time>
      </trkpt>
      <trkpt lat="42.94982" lon="-0.02175">
        <ele>1073.93</ele>
        <time>2013-08-14T08:38:22Z</time>
      </trkpt>
      <trkpt lat="42.94987" lon="-0.02122">
        <ele>1075.37</ele>
        <time>2013-08-14T08:38:34Z</time>
      </trkpt>
      <trkpt lat="42.9499" lon="-0.02053">
        <ele>1077.78</ele>
        <time>2013-08-14T08:38:50Z</time>
      </trkpt>
      <trkpt lat="42.94994" lon="-0.02006">
        <ele>1079.22</ele>
        <time>2013-08-14T08:39:02Z</time>
      </trkpt>
      <trkpt lat="42.95007" lon="-0.01959">
        <ele>1080.66</ele>
        <time>2013-08-14T08:39:14Z</time>
      </trkpt>
      <trkpt lat="42.95021" lon="-0.01925">
        <ele>1083.54</ele>
        <time>2013-08-14T08:39:25Z</time>
      </trkpt>
      <trkpt lat="42.95024" lon="-0.01917">
        <ele>1083.54</ele>
        <time>2013-08-14T08:39:28Z</time>
      </trkpt>
      <trkpt lat="42.95044" lon="-0.01889">
        <ele>1085.95</ele>
        <time>2013-08-14T08:39:39Z</time>
      </trkpt>
      <trkpt lat="42.95066" lon="-0.01861">
        <ele>1087.39</ele>
        <time>2013-08-14T08:39:51Z</time>
      </trkpt>
      <trkpt lat="42.95081" lon="-0.01818">
        <ele>1089.79</ele>
        <time>2013-08-14T08:40:04Z</time>
      </trkpt>
      <trkpt lat="42.95087" lon="-0.01772">
        <ele>1092.68</ele>
        <time>2013-08-14T08:40:17Z</time>
      </trkpt>
      <trkpt lat="42.95094" lon="-0.01739">
        <ele>1094.12</ele>
        <time>2013-08-14T08:40:27Z</time>
      </trkpt>
      <trkpt lat="42.95115" lon="-0.01683">
        <ele>1094.12</ele>
        <time>2013-08-14T08:40:40Z</time>
      </trkpt>
      <trkpt lat="42.95147" lon="-0.0165">
        <ele>1097</ele>
        <time>2013-08-14T08:40:54Z</time>
      </trkpt>
      <trkpt lat="42.95149" lon="-0.01648">
        <ele>1096.52</ele>
        <time>2013-08-14T08:40:55Z</time>
      </trkpt>
      <trkpt lat="42.95151" lon="-0.01642">
        <ele>1097</ele>
        <time>2013-08-14T08:41:00Z</time>
      </trkpt>
      <trkpt lat="42.9515" lon="-0.0164">
        <ele>1097</ele>
        <time>2013-08-14T08:41:01Z</time>
      </trkpt>
      <trkpt lat="42.95157" lon="-0.01638">
        <ele>1097.96</ele>
        <time>2013-08-14T08:41:05Z</time>
      </trkpt>
      <trkpt lat="42.95163" lon="-0.01631">
        <ele>1098.92</ele>
        <time>2013-08-14T08:41:09Z</time>
      </trkpt>
      <trkpt lat="42.95164" lon="-0.01629">
        <ele>1098.44</ele>
        <time>2013-08-14T08:41:10Z</time>
      </trkpt>
      <trkpt lat="42.95165" lon="-0.01627">
        <ele>1098.44</ele>
        <time>2013-08-14T08:41:11Z</time>
      </trkpt>
      <trkpt lat="42.95184" lon="-0.01607">
        <ele>1101.33</ele>
        <time>2013-08-14T08:41:23Z</time>
      </trkpt>
      <trkpt lat="42.95187" lon="-0.01604">
        <ele>1101.81</ele>
        <time>2013-08-14T08:41:26Z</time>
      </trkpt>
      <trkpt lat="42.95191" lon="-0.01599">
        <ele>1102.77</ele>
        <time>2013-08-14T08:41:29Z</time>
      </trkpt>
      <trkpt lat="42.95199" lon="-0.01597">
        <ele>1104.69</ele>
        <time>2013-08-14T08:41:34Z</time>
      </trkpt>
      <trkpt lat="42.95199" lon="-0.01598">
        <ele>1105.17</ele>
        <time>2013-08-14T08:41:35Z</time>
      </trkpt>
      <trkpt lat="42.95198" lon="-0.01602">
        <ele>1104.69</ele>
        <time>2013-08-14T08:41:37Z</time>
      </trkpt>
      <trkpt lat="42.95194" lon="-0.01629">
        <ele>1105.17</ele>
        <time>2013-08-14T08:41:49Z</time>
      </trkpt>
      <trkpt lat="42.95196" lon="-0.01635">
        <ele>1105.17</ele>
        <time>2013-08-14T08:41:52Z</time>
      </trkpt>
      <trkpt lat="42.95193" lon="-0.01645">
        <ele>1105.17</ele>
        <time>2013-08-14T08:41:56Z</time>
      </trkpt>
      <trkpt lat="42.95172" lon="-0.01669">
        <ele>1104.69</ele>
        <time>2013-08-14T08:42:07Z</time>
      </trkpt>
      <trkpt lat="42.9517" lon="-0.01673">
        <ele>1104.21</ele>
        <time>2013-08-14T08:42:17Z</time>
      </trkpt>
      <trkpt lat="42.95171" lon="-0.01676">
        <ele>1104.69</ele>
        <time>2013-08-14T08:42:20Z</time>
      </trkpt>
      <trkpt lat="42.95171" lon="-0.01677">
        <ele>1104.69</ele>
        <time>2013-08-14T08:42:21Z</time>
      </trkpt>
      <trkpt lat="42.95147" lon="-0.01704">
        <ele>1104.21</ele>
        <time>2013-08-14T08:42:30Z</time>
      </trkpt>
      <trkpt lat="42.95146" lon="-0.01705">
        <ele>1104.21</ele>
        <time>2013-08-14T08:42:31Z</time>
      </trkpt>
      <trkpt lat="42.95142" lon="-0.01716">
        <ele>1104.21</ele>
        <time>2013-08-14T08:42:35Z</time>
      </trkpt>
      <trkpt lat="42.95125" lon="-0.01752">
        <ele>1104.69</ele>
        <time>2013-08-14T08:42:47Z</time>
      </trkpt>
      <trkpt lat="42.95115" lon="-0.0178">
        <ele>1104.21</ele>
        <time>2013-08-14T08:42:56Z</time>
      </trkpt>
      <trkpt lat="42.95115" lon="-0.01786">
        <ele>1104.69</ele>
        <time>2013-08-14T08:42:59Z</time>
      </trkpt>
      <trkpt lat="42.95108" lon="-0.01794">
        <ele>1104.21</ele>
        <time>2013-08-14T08:43:03Z</time>
      </trkpt>
      <trkpt lat="42.95102" lon="-0.01803">
        <ele>1104.21</ele>
        <time>2013-08-14T08:43:07Z</time>
      </trkpt>
      <trkpt lat="42.95101" lon="-0.01806">
        <ele>1104.69</ele>
        <time>2013-08-14T08:43:08Z</time>
      </trkpt>
      <trkpt lat="42.95101" lon="-0.01818">
        <ele>1104.69</ele>
        <time>2013-08-14T08:43:11Z</time>
      </trkpt>
      <trkpt lat="42.95096" lon="-0.01845">
        <ele>1104.69</ele>
        <time>2013-08-14T08:43:20Z</time>
      </trkpt>
      <trkpt lat="42.95092" lon="-0.01852">
        <ele>1104.21</ele>
        <time>2013-08-14T08:43:22Z</time>
      </trkpt>
      <trkpt lat="42.95078" lon="-0.01879">
        <ele>1104.21</ele>
        <time>2013-08-14T08:43:32Z</time>
      </trkpt>
      <trkpt lat="42.9507" lon="-0.01914">
        <ele>1104.69</ele>
        <time>2013-08-14T08:43:43Z</time>
      </trkpt>
      <trkpt lat="42.95064" lon="-0.01955">
        <ele>1103.73</ele>
        <time>2013-08-14T08:43:54Z</time>
      </trkpt>
      <trkpt lat="42.95061" lon="-0.01986">
        <ele>1104.21</ele>
        <time>2013-08-14T08:44:03Z</time>
      </trkpt>
      <trkpt lat="42.95053" lon="-0.02006">
        <ele>1104.21</ele>
        <time>2013-08-14T08:44:09Z</time>
      </trkpt>
      <trkpt lat="42.95042" lon="-0.02048">
        <ele>1103.73</ele>
        <time>2013-08-14T08:44:21Z</time>
      </trkpt>
      <trkpt lat="42.95034" lon="-0.02069">
        <ele>1103.73</ele>
        <time>2013-08-14T08:44:27Z</time>
      </trkpt>
      <trkpt lat="42.95031" lon="-0.02109">
        <ele>1103.73</ele>
        <time>2013-08-14T08:44:38Z</time>
      </trkpt>
      <trkpt lat="42.95031" lon="-0.02125">
        <ele>1103.73</ele>
        <time>2013-08-14T08:44:42Z</time>
      </trkpt>
      <trkpt lat="42.95029" lon="-0.0214">
        <ele>1103.73</ele>
        <time>2013-08-14T08:44:46Z</time>
      </trkpt>
      <trkpt lat="42.95035" lon="-0.02185">
        <ele>1103.73</ele>
        <time>2013-08-14T08:44:58Z</time>
      </trkpt>
      <trkpt lat="42.9504" lon="-0.02227">
        <ele>1103.25</ele>
        <time>2013-08-14T08:45:09Z</time>
      </trkpt>
      <trkpt lat="42.95039" lon="-0.02281">
        <ele>1102.77</ele>
        <time>2013-08-14T08:45:23Z</time>
      </trkpt>
      <trkpt lat="42.95043" lon="-0.02328">
        <ele>1102.77</ele>
        <time>2013-08-14T08:45:37Z</time>
      </trkpt>
      <trkpt lat="42.95057" lon="-0.02369">
        <ele>1102.77</ele>
        <time>2013-08-14T08:45:49Z</time>
      </trkpt>
      <trkpt lat="42.95061" lon="-0.02418">
        <ele>1103.25</ele>
        <time>2013-08-14T08:46:02Z</time>
      </trkpt>
      <trkpt lat="42.95074" lon="-0.0247">
        <ele>1103.25</ele>
        <time>2013-08-14T08:46:16Z</time>
      </trkpt>
      <trkpt lat="42.95074" lon="-0.02515">
        <ele>1103.25</ele>
        <time>2013-08-14T08:46:28Z</time>
      </trkpt>
      <trkpt lat="42.95082" lon="-0.02568">
        <ele>1102.77</ele>
        <time>2013-08-14T08:46:42Z</time>
      </trkpt>
      <trkpt lat="42.95108" lon="-0.02614">
        <ele>1102.29</ele>
        <time>2013-08-14T08:46:57Z</time>
      </trkpt>
      <trkpt lat="42.95115" lon="-0.02648">
        <ele>1102.77</ele>
        <time>2013-08-14T08:47:09Z</time>
      </trkpt>
      <trkpt lat="42.95111" lon="-0.02676">
        <ele>1102.77</ele>
        <time>2013-08-14T08:47:18Z</time>
      </trkpt>
      <trkpt lat="42.95119" lon="-0.02723">
        <ele>1102.29</ele>
        <time>2013-08-14T08:47:31Z</time>
      </trkpt>
      <trkpt lat="42.95137" lon="-0.0276">
        <ele>1102.77</ele>
        <time>2013-08-14T08:47:43Z</time>
      </trkpt>
      <trkpt lat="42.95156" lon="-0.02809">
        <ele>1102.29</ele>
        <time>2013-08-14T08:47:57Z</time>
      </trkpt>
      <trkpt lat="42.95185" lon="-0.02857">
        <ele>1102.29</ele>
        <time>2013-08-14T08:48:11Z</time>
      </trkpt>
      <trkpt lat="42.95205" lon="-0.02894">
        <ele>1101.81</ele>
        <time>2013-08-14T08:48:22Z</time>
      </trkpt>
      <trkpt lat="42.95224" lon="-0.02926">
        <ele>1102.29</ele>
        <time>2013-08-14T08:48:33Z</time>
      </trkpt>
      <trkpt lat="42.95243" lon="-0.02959">
        <ele>1101.81</ele>
        <time>2013-08-14T08:48:44Z</time>
      </trkpt>
      <trkpt lat="42.95251" lon="-0.02998">
        <ele>1102.29</ele>
        <time>2013-08-14T08:48:54Z</time>
      </trkpt>
      <trkpt lat="42.95277" lon="-0.0306">
        <ele>1101.33</ele>
        <time>2013-08-14T08:49:11Z</time>
      </trkpt>
      <trkpt lat="42.95284" lon="-0.03066">
        <ele>1101.81</ele>
        <time>2013-08-14T08:49:14Z</time>
      </trkpt>
      <trkpt lat="42.95311" lon="-0.03107">
        <ele>1101.33</ele>
        <time>2013-08-14T08:49:28Z</time>
      </trkpt>
      <trkpt lat="42.95334" lon="-0.03142">
        <ele>1101.81</ele>
        <time>2013-08-14T08:49:40Z</time>
      </trkpt>
      <trkpt lat="42.95364" lon="-0.0318">
        <ele>1101.33</ele>
        <time>2013-08-14T08:49:53Z</time>
      </trkpt>
      <trkpt lat="42.9539" lon="-0.03193">
        <ele>1100.37</ele>
        <time>2013-08-14T08:50:04Z</time>
      </trkpt>
      <trkpt lat="42.95406" lon="-0.0322">
        <ele>1100.85</ele>
        <time>2013-08-14T08:50:15Z</time>
      </trkpt>
      <trkpt lat="42.95434" lon="-0.03255">
        <ele>1100.85</ele>
        <time>2013-08-14T08:50:29Z</time>
      </trkpt>
      <trkpt lat="42.95458" lon="-0.03279">
        <ele>1100.37</ele>
        <time>2013-08-14T08:50:42Z</time>
      </trkpt>
      <trkpt lat="42.95466" lon="-0.0331">
        <ele>1100.37</ele>
        <time>2013-08-14T08:50:55Z</time>
      </trkpt>
      <trkpt lat="42.95485" lon="-0.03329">
        <ele>1100.85</ele>
        <time>2013-08-14T08:51:05Z</time>
      </trkpt>
      <trkpt lat="42.95492" lon="-0.03359">
        <ele>1100.37</ele>
        <time>2013-08-14T08:51:15Z</time>
      </trkpt>
      <trkpt lat="42.95494" lon="-0.03371">
        <ele>1100.37</ele>
        <time>2013-08-14T08:51:19Z</time>
      </trkpt>
      <trkpt lat="42.95487" lon="-0.03414">
        <ele>1100.37</ele>
        <time>2013-08-14T08:51:32Z</time>
      </trkpt>
      <trkpt lat="42.95474" lon="-0.03463">
        <ele>1099.89</ele>
        <time>2013-08-14T08:51:45Z</time>
      </trkpt>
      <trkpt lat="42.95474" lon="-0.03507">
        <ele>1099.89</ele>
        <time>2013-08-14T08:51:57Z</time>
      </trkpt>
      <trkpt lat="42.95476" lon="-0.03548">
        <ele>1100.85</ele>
        <time>2013-08-14T08:52:08Z</time>
      </trkpt>
      <trkpt lat="42.95456" lon="-0.03571">
        <ele>1100.37</ele>
        <time>2013-08-14T08:52:19Z</time>
      </trkpt>
      <trkpt lat="42.95453" lon="-0.03579">
        <ele>1100.37</ele>
        <time>2013-08-14T08:52:22Z</time>
      </trkpt>
      <trkpt lat="42.95461" lon="-0.03602">
        <ele>1099.89</ele>
        <time>2013-08-14T08:52:27Z</time>
      </trkpt>
      <trkpt lat="42.95492" lon="-0.03661">
        <ele>1099.89</ele>
        <time>2013-08-14T08:52:44Z</time>
      </trkpt>
      <trkpt lat="42.95497" lon="-0.03666">
        <ele>1099.89</ele>
        <time>2013-08-14T08:52:46Z</time>
      </trkpt>
      <trkpt lat="42.95523" lon="-0.037">
        <ele>1099.4</ele>
        <time>2013-08-14T08:52:59Z</time>
      </trkpt>
      <trkpt lat="42.95555" lon="-0.03731">
        <ele>1099.89</ele>
        <time>2013-08-14T08:53:13Z</time>
      </trkpt>
      <trkpt lat="42.95577" lon="-0.03754">
        <ele>1099.89</ele>
        <time>2013-08-14T08:53:24Z</time>
      </trkpt>
      <trkpt lat="42.95584" lon="-0.03762">
        <ele>1100.37</ele>
        <time>2013-08-14T08:53:28Z</time>
      </trkpt>
      <trkpt lat="42.95581" lon="-0.03808">
        <ele>1099.89</ele>
        <time>2013-08-14T08:53:40Z</time>
      </trkpt>
      <trkpt lat="42.9558" lon="-0.03846">
        <ele>1099.4</ele>
        <time>2013-08-14T08:53:50Z</time>
      </trkpt>
      <trkpt lat="42.95599" lon="-0.03883">
        <ele>1099.4</ele>
        <time>2013-08-14T08:54:01Z</time>
      </trkpt>
      <trkpt lat="42.95612" lon="-0.03938">
        <ele>1099.4</ele>
        <time>2013-08-14T08:54:15Z</time>
      </trkpt>
      <trkpt lat="42.95629" lon="-0.03991">
        <ele>1098.92</ele>
        <time>2013-08-14T08:54:29Z</time>
      </trkpt>
      <trkpt lat="42.95656" lon="-0.04035">
        <ele>1098.92</ele>
        <time>2013-08-14T08:54:43Z</time>
      </trkpt>
      <trkpt lat="42.9568" lon="-0.04074">
        <ele>1098.44</ele>
        <time>2013-08-14T08:54:56Z</time>
      </trkpt>
      <trkpt lat="42.95703" lon="-0.04111">
        <ele>1098.44</ele>
        <time>2013-08-14T08:55:08Z</time>
      </trkpt>
      <trkpt lat="42.95717" lon="-0.04138">
        <ele>1098.44</ele>
        <time>2013-08-14T08:55:18Z</time>
      </trkpt>
      <trkpt lat="42.95738" lon="-0.04152">
        <ele>1100.85</ele>
        <time>2013-08-14T08:55:31Z</time>
      </trkpt>
      <trkpt lat="42.95743" lon="-0.04154">
        <ele>1101.81</ele>
        <time>2013-08-14T08:55:34Z</time>
      </trkpt>
      <trkpt lat="42.95745" lon="-0.04156">
        <ele>1102.77</ele>
        <time>2013-08-14T08:55:36Z</time>
      </trkpt>
      <trkpt lat="42.95754" lon="-0.04165">
        <ele>1104.69</ele>
        <time>2013-08-14T08:55:44Z</time>
      </trkpt>
      <trkpt lat="42.95758" lon="-0.04168">
        <ele>1105.65</ele>
        <time>2013-08-14T08:55:47Z</time>
      </trkpt>
      <trkpt lat="42.95762" lon="-0.04172">
        <ele>1107.1</ele>
        <time>2013-08-14T08:55:51Z</time>
      </trkpt>
      <trkpt lat="42.95777" lon="-0.04192">
        <ele>1110.46</ele>
        <time>2013-08-14T08:56:06Z</time>
      </trkpt>
      <trkpt lat="42.95792" lon="-0.0421">
        <ele>1113.34</ele>
        <time>2013-08-14T08:56:20Z</time>
      </trkpt>
      <trkpt lat="42.95794" lon="-0.04213">
        <ele>1113.82</ele>
        <time>2013-08-14T08:56:22Z</time>
      </trkpt>
      <trkpt lat="42.95802" lon="-0.04223">
        <ele>1115.27</ele>
        <time>2013-08-14T08:56:30Z</time>
      </trkpt>
      <trkpt lat="42.95822" lon="-0.04241">
        <ele>1118.15</ele>
        <time>2013-08-14T08:56:45Z</time>
      </trkpt>
      <trkpt lat="42.95834" lon="-0.04252">
        <ele>1121.03</ele>
        <time>2013-08-14T08:56:55Z</time>
      </trkpt>
      <trkpt lat="42.95848" lon="-0.04269">
        <ele>1124.4</ele>
        <time>2013-08-14T08:57:07Z</time>
      </trkpt>
      <trkpt lat="42.95862" lon="-0.04309">
        <ele>1124.88</ele>
        <time>2013-08-14T08:57:25Z</time>
      </trkpt>
      <trkpt lat="42.95879" lon="-0.04334">
        <ele>1126.32</ele>
        <time>2013-08-14T08:57:37Z</time>
      </trkpt>
      <trkpt lat="42.95887" lon="-0.04353">
        <ele>1126.32</ele>
        <time>2013-08-14T08:57:45Z</time>
      </trkpt>
      <trkpt lat="42.95891" lon="-0.04357">
        <ele>1125.84</ele>
        <time>2013-08-14T08:57:56Z</time>
      </trkpt>
      <trkpt lat="42.95892" lon="-0.04357">
        <ele>1126.32</ele>
        <time>2013-08-14T08:57:57Z</time>
      </trkpt>
      <trkpt lat="42.95895" lon="-0.0436">
        <ele>1125.84</ele>
        <time>2013-08-14T08:58:04Z</time>
      </trkpt>
      <trkpt lat="42.95894" lon="-0.04359">
        <ele>1125.84</ele>
        <time>2013-08-14T08:58:06Z</time>
      </trkpt>
      <trkpt lat="42.95892" lon="-0.04357">
        <ele>1126.32</ele>
        <time>2013-08-14T08:58:17Z</time>
      </trkpt>
      <trkpt lat="42.95892" lon="-0.04357">
        <ele>1126.32</ele>
        <time>2013-08-14T08:58:20Z</time>
      </trkpt>
      <trkpt lat="42.95894" lon="-0.04358">
        <ele>1126.32</ele>
        <time>2013-08-14T08:58:22Z</time>
      </trkpt>
      <trkpt lat="42.95899" lon="-0.04359">
        <ele>1125.84</ele>
        <time>2013-08-14T08:58:33Z</time>
      </trkpt>
      <trkpt lat="42.95897" lon="-0.04359">
        <ele>1125.36</ele>
        <time>2013-08-14T08:58:48Z</time>
      </trkpt>
      <trkpt lat="42.95897" lon="-0.04358">
        <ele>1117.19</ele>
        <time>2013-08-14T08:58:55Z</time>
      </trkpt>
      <trkpt lat="42.95897" lon="-0.04358">
        <ele>1123.92</ele>
        <time>2013-08-14T08:58:56Z</time>
      </trkpt>
      <trkpt lat="42.95897" lon="-0.04358">
        <ele>1124.88</ele>
        <time>2013-08-14T08:58:58Z</time>
      </trkpt>
      <trkpt lat="42.95897" lon="-0.04358">
        <ele>1125.36</ele>
        <time>2013-08-14T08:59:25Z</time>
      </trkpt>
      <trkpt lat="42.95897" lon="-0.04359">
        <ele>1124.88</ele>
        <time>2013-08-14T08:59:52Z</time>
      </trkpt>
      <trkpt lat="42.95897" lon="-0.04359">
        <ele>1125.36</ele>
        <time>2013-08-14T09:00:18Z</time>
      </trkpt>
      <trkpt lat="42.95897" lon="-0.04359">
        <ele>1123.92</ele>
        <time>2013-08-14T09:00:21Z</time>
      </trkpt>
      <trkpt lat="42.95897" lon="-0.04359">
        <ele>1125.36</ele>
        <time>2013-08-14T09:00:49Z</time>
      </trkpt>
      <trkpt lat="42.95898" lon="-0.04359">
        <ele>1125.84</ele>
        <time>2013-08-14T09:00:59Z</time>
      </trkpt>
      <trkpt lat="42.95897" lon="-0.04359">
        <ele>1125.36</ele>
        <time>2013-08-14T09:01:14Z</time>
      </trkpt>
      <trkpt lat="42.95898" lon="-0.04359">
        <ele>1125.84</ele>
        <time>2013-08-14T09:01:33Z</time>
      </trkpt>
      <trkpt lat="42.959" lon="-0.04359">
        <ele>1125.84</ele>
        <time>2013-08-14T09:01:48Z</time>
      </trkpt>
      <trkpt lat="42.95904" lon="-0.0436">
        <ele>1125.84</ele>
        <time>2013-08-14T09:01:55Z</time>
      </trkpt>
      <trkpt lat="42.95916" lon="-0.04366">
        <ele>1125.84</ele>
        <time>2013-08-14T09:02:02Z</time>
      </trkpt>
      <trkpt lat="42.95941" lon="-0.04387">
        <ele>1123.44</ele>
        <time>2013-08-14T09:02:15Z</time>
      </trkpt>
      <trkpt lat="42.95951" lon="-0.04399">
        <ele>1120.07</ele>
        <time>2013-08-14T09:02:19Z</time>
      </trkpt>
      <trkpt lat="42.95954" lon="-0.04401">
        <ele>1119.11</ele>
        <time>2013-08-14T09:02:20Z</time>
      </trkpt>
      <trkpt lat="42.95954" lon="-0.04406">
        <ele>1117.67</ele>
        <time>2013-08-14T09:02:23Z</time>
      </trkpt>
      <trkpt lat="42.95943" lon="-0.04409">
        <ele>1114.31</ele>
        <time>2013-08-14T09:02:27Z</time>
      </trkpt>
      <trkpt lat="42.95932" lon="-0.04413">
        <ele>1110.94</ele>
        <time>2013-08-14T09:02:31Z</time>
      </trkpt>
      <trkpt lat="42.95928" lon="-0.04414">
        <ele>1109.02</ele>
        <time>2013-08-14T09:02:33Z</time>
      </trkpt>
      <trkpt lat="42.95918" lon="-0.04417">
        <ele>1105.65</ele>
        <time>2013-08-14T09:02:39Z</time>
      </trkpt>
      <trkpt lat="42.95909" lon="-0.04421">
        <ele>1103.25</ele>
        <time>2013-08-14T09:02:44Z</time>
      </trkpt>
      <trkpt lat="42.95897" lon="-0.04426">
        <ele>1100.37</ele>
        <time>2013-08-14T09:02:50Z</time>
      </trkpt>
      <trkpt lat="42.9589" lon="-0.04429">
        <ele>1098.92</ele>
        <time>2013-08-14T09:02:53Z</time>
      </trkpt>
      <trkpt lat="42.95897" lon="-0.04444">
        <ele>1093.64</ele>
        <time>2013-08-14T09:02:59Z</time>
      </trkpt>
      <trkpt lat="42.959" lon="-0.04447">
        <ele>1092.68</ele>
        <time>2013-08-14T09:03:00Z</time>
      </trkpt>
      <trkpt lat="42.95911" lon="-0.04456">
        <ele>1089.79</ele>
        <time>2013-08-14T09:03:04Z</time>
      </trkpt>
      <trkpt lat="42.95921" lon="-0.04466">
        <ele>1086.91</ele>
        <time>2013-08-14T09:03:08Z</time>
      </trkpt>
      <trkpt lat="42.95933" lon="-0.04476">
        <ele>1083.54</ele>
        <time>2013-08-14T09:03:13Z</time>
      </trkpt>
      <trkpt lat="42.95947" lon="-0.04489">
        <ele>1079.7</ele>
        <time>2013-08-14T09:03:19Z</time>
      </trkpt>
      <trkpt lat="42.95956" lon="-0.04501">
        <ele>1075.85</ele>
        <time>2013-08-14T09:03:23Z</time>
      </trkpt>
      <trkpt lat="42.95967" lon="-0.04511">
        <ele>1072.49</ele>
        <time>2013-08-14T09:03:28Z</time>
      </trkpt>
      <trkpt lat="42.95975" lon="-0.0452">
        <ele>1069.6</ele>
        <time>2013-08-14T09:03:33Z</time>
      </trkpt>
      <trkpt lat="42.95977" lon="-0.04522">
        <ele>1069.12</ele>
        <time>2013-08-14T09:03:34Z</time>
      </trkpt>
      <trkpt lat="42.95988" lon="-0.04526">
        <ele>1064.32</ele>
        <time>2013-08-14T09:03:40Z</time>
      </trkpt>
      <trkpt lat="42.95997" lon="-0.04529">
        <ele>1061.91</ele>
        <time>2013-08-14T09:03:43Z</time>
      </trkpt>
      <trkpt lat="42.96009" lon="-0.04532">
        <ele>1057.11</ele>
        <time>2013-08-14T09:03:48Z</time>
      </trkpt>
      <trkpt lat="42.96015" lon="-0.04533">
        <ele>1053.74</ele>
        <time>2013-08-14T09:03:51Z</time>
      </trkpt>
      <trkpt lat="42.96021" lon="-0.04533">
        <ele>1051.82</ele>
        <time>2013-08-14T09:03:54Z</time>
      </trkpt>
      <trkpt lat="42.96037" lon="-0.04533">
        <ele>1047.49</ele>
        <time>2013-08-14T09:03:59Z</time>
      </trkpt>
      <trkpt lat="42.96046" lon="-0.04533">
        <ele>1045.57</ele>
        <time>2013-08-14T09:04:02Z</time>
      </trkpt>
      <trkpt lat="42.96051" lon="-0.04532">
        <ele>1044.13</ele>
        <time>2013-08-14T09:04:04Z</time>
      </trkpt>
      <trkpt lat="42.9606" lon="-0.04526">
        <ele>1042.21</ele>
        <time>2013-08-14T09:04:07Z</time>
      </trkpt>
      <trkpt lat="42.96063" lon="-0.04524">
        <ele>1040.76</ele>
        <time>2013-08-14T09:04:08Z</time>
      </trkpt>
      <trkpt lat="42.9608" lon="-0.04515">
        <ele>1036.92</ele>
        <time>2013-08-14T09:04:12Z</time>
      </trkpt>
      <trkpt lat="42.96085" lon="-0.04514">
        <ele>1035.96</ele>
        <time>2013-08-14T09:04:13Z</time>
      </trkpt>
      <trkpt lat="42.96093" lon="-0.04511">
        <ele>1034.52</ele>
        <time>2013-08-14T09:04:15Z</time>
      </trkpt>
      <trkpt lat="42.96113" lon="-0.04509">
        <ele>1029.23</ele>
        <time>2013-08-14T09:04:20Z</time>
      </trkpt>
      <trkpt lat="42.96124" lon="-0.04505">
        <ele>1026.34</ele>
        <time>2013-08-14T09:04:23Z</time>
      </trkpt>
      <trkpt lat="42.96136" lon="-0.04501">
        <ele>1022.98</ele>
        <time>2013-08-14T09:04:27Z</time>
      </trkpt>
      <trkpt lat="42.96149" lon="-0.04496">
        <ele>1019.13</ele>
        <time>2013-08-14T09:04:31Z</time>
      </trkpt>
      <trkpt lat="42.96153" lon="-0.04494">
        <ele>1018.17</ele>
        <time>2013-08-14T09:04:32Z</time>
      </trkpt>
      <trkpt lat="42.9617" lon="-0.04488">
        <ele>1013.37</ele>
        <time>2013-08-14T09:04:36Z</time>
      </trkpt>
      <trkpt lat="42.96186" lon="-0.04487">
        <ele>1010.96</ele>
        <time>2013-08-14T09:04:40Z</time>
      </trkpt>
      <trkpt lat="42.96199" lon="-0.04482">
        <ele>1008.08</ele>
        <time>2013-08-14T09:04:43Z</time>
      </trkpt>
      <trkpt lat="42.96214" lon="-0.04466">
        <ele>1005.68</ele>
        <time>2013-08-14T09:04:48Z</time>
      </trkpt>
      <trkpt lat="42.96219" lon="-0.04458">
        <ele>1004.23</ele>
        <time>2013-08-14T09:04:56Z</time>
      </trkpt>
      <trkpt lat="42.9622" lon="-0.04457">
        <ele>1004.23</ele>
        <time>2013-08-14T09:04:59Z</time>
      </trkpt>
      <trkpt lat="42.96221" lon="-0.04454">
        <ele>1004.23</ele>
        <time>2013-08-14T09:05:02Z</time>
      </trkpt>
      <trkpt lat="42.96231" lon="-0.0443">
        <ele>1002.31</ele>
        <time>2013-08-14T09:05:09Z</time>
      </trkpt>
      <trkpt lat="42.96238" lon="-0.04424">
        <ele>999.91</ele>
        <time>2013-08-14T09:05:12Z</time>
      </trkpt>
      <trkpt lat="42.96239" lon="-0.04424">
        <ele>999.43</ele>
        <time>2013-08-14T09:05:13Z</time>
      </trkpt>
      <trkpt lat="42.96263" lon="-0.04453">
        <ele>999.43</ele>
        <time>2013-08-14T09:05:23Z</time>
      </trkpt>
      <trkpt lat="42.96291" lon="-0.04482">
        <ele>1000.87</ele>
        <time>2013-08-14T09:05:35Z</time>
      </trkpt>
      <trkpt lat="42.96312" lon="-0.04501">
        <ele>1003.27</ele>
        <time>2013-08-14T09:05:47Z</time>
      </trkpt>
      <trkpt lat="42.96341" lon="-0.04526">
        <ele>1000.87</ele>
        <time>2013-08-14T09:05:57Z</time>
      </trkpt>
      <trkpt lat="42.96358" lon="-0.04551">
        <ele>1003.27</ele>
        <time>2013-08-14T09:06:07Z</time>
      </trkpt>
      <trkpt lat="42.96383" lon="-0.0459">
        <ele>1004.72</ele>
        <time>2013-08-14T09:06:21Z</time>
      </trkpt>
      <trkpt lat="42.96402" lon="-0.04634">
        <ele>1003.75</ele>
        <time>2013-08-14T09:06:33Z</time>
      </trkpt>
      <trkpt lat="42.96428" lon="-0.04642">
        <ele>1000.39</ele>
        <time>2013-08-14T09:06:42Z</time>
      </trkpt>
      <trkpt lat="42.96433" lon="-0.04644">
        <ele>998.47</ele>
        <time>2013-08-14T09:06:44Z</time>
      </trkpt>
      <trkpt lat="42.9644" lon="-0.0465">
        <ele>997.51</ele>
        <time>2013-08-14T09:06:45Z</time>
      </trkpt>
      <trkpt lat="42.96443" lon="-0.04651">
        <ele>997.51</ele>
        <time>2013-08-14T09:06:46Z</time>
      </trkpt>
      <trkpt lat="42.96456" lon="-0.04661">
        <ele>994.14</ele>
        <time>2013-08-14T09:06:49Z</time>
      </trkpt>
      <trkpt lat="42.96462" lon="-0.0467">
        <ele>992.22</ele>
        <time>2013-08-14T09:06:51Z</time>
      </trkpt>
      <trkpt lat="42.9647" lon="-0.04681">
        <ele>989.81</ele>
        <time>2013-08-14T09:06:53Z</time>
      </trkpt>
      <trkpt lat="42.96489" lon="-0.04695">
        <ele>985.01</ele>
        <time>2013-08-14T09:06:57Z</time>
      </trkpt>
      <trkpt lat="42.9651" lon="-0.04705">
        <ele>981.16</ele>
        <time>2013-08-14T09:07:01Z</time>
      </trkpt>
      <trkpt lat="42.9652" lon="-0.04711">
        <ele>980.68</ele>
        <time>2013-08-14T09:07:03Z</time>
      </trkpt>
      <trkpt lat="42.9653" lon="-0.04722">
        <ele>979.72</ele>
        <time>2013-08-14T09:07:05Z</time>
      </trkpt>
      <trkpt lat="42.96553" lon="-0.04751">
        <ele>978.28</ele>
        <time>2013-08-14T09:07:10Z</time>
      </trkpt>
      <trkpt lat="42.96562" lon="-0.04761">
        <ele>977.8</ele>
        <time>2013-08-14T09:07:12Z</time>
      </trkpt>
      <trkpt lat="42.96582" lon="-0.04771">
        <ele>976.84</ele>
        <time>2013-08-14T09:07:16Z</time>
      </trkpt>
      <trkpt lat="42.96592" lon="-0.04772">
        <ele>975.88</ele>
        <time>2013-08-14T09:07:19Z</time>
      </trkpt>
      <trkpt lat="42.96598" lon="-0.0478">
        <ele>975.88</ele>
        <time>2013-08-14T09:07:23Z</time>
      </trkpt>
      <trkpt lat="42.9662" lon="-0.04793">
        <ele>971.55</ele>
        <time>2013-08-14T09:07:31Z</time>
      </trkpt>
      <trkpt lat="42.96628" lon="-0.04799">
        <ele>969.63</ele>
        <time>2013-08-14T09:07:34Z</time>
      </trkpt>
      <trkpt lat="42.96631" lon="-0.04802">
        <ele>968.67</ele>
        <time>2013-08-14T09:07:35Z</time>
      </trkpt>
      <trkpt lat="42.96641" lon="-0.04811">
        <ele>964.82</ele>
        <time>2013-08-14T09:07:39Z</time>
      </trkpt>
      <trkpt lat="42.96658" lon="-0.04798">
        <ele>961.46</ele>
        <time>2013-08-14T09:07:45Z</time>
      </trkpt>
      <trkpt lat="42.96657" lon="-0.0475">
        <ele>957.61</ele>
        <time>2013-08-14T09:07:56Z</time>
      </trkpt>
      <trkpt lat="42.96663" lon="-0.0473">
        <ele>954.73</ele>
        <time>2013-08-14T09:08:01Z</time>
      </trkpt>
      <trkpt lat="42.96673" lon="-0.04723">
        <ele>952.32</ele>
        <time>2013-08-14T09:08:03Z</time>
      </trkpt>
      <trkpt lat="42.96688" lon="-0.04713">
        <ele>949.92</ele>
        <time>2013-08-14T09:08:06Z</time>
      </trkpt>
      <trkpt lat="42.96692" lon="-0.04709">
        <ele>948.48</ele>
        <time>2013-08-14T09:08:07Z</time>
      </trkpt>
      <trkpt lat="42.96707" lon="-0.04695">
        <ele>944.15</ele>
        <time>2013-08-14T09:08:11Z</time>
      </trkpt>
      <trkpt lat="42.96713" lon="-0.04689">
        <ele>943.67</ele>
        <time>2013-08-14T09:08:12Z</time>
      </trkpt>
      <trkpt lat="42.96731" lon="-0.04671">
        <ele>938.38</ele>
        <time>2013-08-14T09:08:16Z</time>
      </trkpt>
      <trkpt lat="42.96747" lon="-0.04655">
        <ele>935.02</ele>
        <time>2013-08-14T09:08:19Z</time>
      </trkpt>
      <trkpt lat="42.96768" lon="-0.04637">
        <ele>932.14</ele>
        <time>2013-08-14T09:08:23Z</time>
      </trkpt>
      <trkpt lat="42.96789" lon="-0.04608">
        <ele>927.81</ele>
        <time>2013-08-14T09:08:28Z</time>
      </trkpt>
      <trkpt lat="42.96801" lon="-0.04592">
        <ele>924.93</ele>
        <time>2013-08-14T09:08:31Z</time>
      </trkpt>
      <trkpt lat="42.96804" lon="-0.04586">
        <ele>923</ele>
        <time>2013-08-14T09:08:32Z</time>
      </trkpt>
      <trkpt lat="42.96818" lon="-0.04564">
        <ele>918.68</ele>
        <time>2013-08-14T09:08:36Z</time>
      </trkpt>
      <trkpt lat="42.96833" lon="-0.04541">
        <ele>915.31</ele>
        <time>2013-08-14T09:08:40Z</time>
      </trkpt>
      <trkpt lat="42.96845" lon="-0.04523">
        <ele>911.95</ele>
        <time>2013-08-14T09:08:44Z</time>
      </trkpt>
      <trkpt lat="42.96853" lon="-0.04515">
        <ele>911.47</ele>
        <time>2013-08-14T09:08:55Z</time>
      </trkpt>
      <trkpt lat="42.96853" lon="-0.04513">
        <ele>911.47</ele>
        <time>2013-08-14T09:09:05Z</time>
      </trkpt>
      <trkpt lat="42.96855" lon="-0.04509">
        <ele>911.47</ele>
        <time>2013-08-14T09:09:08Z</time>
      </trkpt>
      <trkpt lat="42.96873" lon="-0.04481">
        <ele>906.66</ele>
        <time>2013-08-14T09:09:18Z</time>
      </trkpt>
      <trkpt lat="42.96881" lon="-0.04465">
        <ele>905.22</ele>
        <time>2013-08-14T09:09:21Z</time>
      </trkpt>
      <trkpt lat="42.96889" lon="-0.04447">
        <ele>903.3</ele>
        <time>2013-08-14T09:09:24Z</time>
      </trkpt>
      <trkpt lat="42.96906" lon="-0.04422">
        <ele>900.89</ele>
        <time>2013-08-14T09:09:28Z</time>
      </trkpt>
      <trkpt lat="42.96911" lon="-0.04413">
        <ele>900.89</ele>
        <time>2013-08-14T09:09:29Z</time>
      </trkpt>
      <trkpt lat="42.9693" lon="-0.04377">
        <ele>898.97</ele>
        <time>2013-08-14T09:09:34Z</time>
      </trkpt>
      <trkpt lat="42.96946" lon="-0.04355">
        <ele>896.57</ele>
        <time>2013-08-14T09:09:38Z</time>
      </trkpt>
      <trkpt lat="42.96984" lon="-0.04332">
        <ele>892.72</ele>
        <time>2013-08-14T09:09:45Z</time>
      </trkpt>
      <trkpt lat="42.97011" lon="-0.04321">
        <ele>890.8</ele>
        <time>2013-08-14T09:09:49Z</time>
      </trkpt>
      <trkpt lat="42.97054" lon="-0.04295">
        <ele>885.99</ele>
        <time>2013-08-14T09:09:56Z</time>
      </trkpt>
      <trkpt lat="42.97067" lon="-0.04286">
        <ele>884.07</ele>
        <time>2013-08-14T09:09:58Z</time>
      </trkpt>
      <trkpt lat="42.97077" lon="-0.04274">
        <ele>883.11</ele>
        <time>2013-08-14T09:10:00Z</time>
      </trkpt>
      <trkpt lat="42.9709" lon="-0.04238">
        <ele>880.71</ele>
        <time>2013-08-14T09:10:06Z</time>
      </trkpt>
      <trkpt lat="42.97096" lon="-0.04228">
        <ele>876.86</ele>
        <time>2013-08-14T09:10:09Z</time>
      </trkpt>
      <trkpt lat="42.97097" lon="-0.04225">
        <ele>875.9</ele>
        <time>2013-08-14T09:10:10Z</time>
      </trkpt>
      <trkpt lat="42.97106" lon="-0.04214">
        <ele>872.05</ele>
        <time>2013-08-14T09:10:14Z</time>
      </trkpt>
      <trkpt lat="42.97109" lon="-0.0421">
        <ele>871.09</ele>
        <time>2013-08-14T09:10:15Z</time>
      </trkpt>
      <trkpt lat="42.97122" lon="-0.04192">
        <ele>866.29</ele>
        <time>2013-08-14T09:10:19Z</time>
      </trkpt>
      <trkpt lat="42.97126" lon="-0.04188">
        <ele>864.84</ele>
        <time>2013-08-14T09:10:21Z</time>
      </trkpt>
      <trkpt lat="42.97133" lon="-0.04199">
        <ele>863.4</ele>
        <time>2013-08-14T09:10:26Z</time>
      </trkpt>
      <trkpt lat="42.97155" lon="-0.04244">
        <ele>861.48</ele>
        <time>2013-08-14T09:10:37Z</time>
      </trkpt>
      <trkpt lat="42.97164" lon="-0.04262">
        <ele>861</ele>
        <time>2013-08-14T09:10:40Z</time>
      </trkpt>
      <trkpt lat="42.97176" lon="-0.04272">
        <ele>860.52</ele>
        <time>2013-08-14T09:10:43Z</time>
      </trkpt>
      <trkpt lat="42.97193" lon="-0.0429">
        <ele>857.63</ele>
        <time>2013-08-14T09:10:47Z</time>
      </trkpt>
      <trkpt lat="42.97203" lon="-0.04311">
        <ele>856.19</ele>
        <time>2013-08-14T09:10:49Z</time>
      </trkpt>
      <trkpt lat="42.9721" lon="-0.04338">
        <ele>853.31</ele>
        <time>2013-08-14T09:10:52Z</time>
      </trkpt>
      <trkpt lat="42.97215" lon="-0.04361">
        <ele>851.38</ele>
        <time>2013-08-14T09:10:54Z</time>
      </trkpt>
      <trkpt lat="42.97217" lon="-0.0438">
        <ele>849.94</ele>
        <time>2013-08-14T09:10:56Z</time>
      </trkpt>
      <trkpt lat="42.9723" lon="-0.04421">
        <ele>845.62</ele>
        <time>2013-08-14T09:11:01Z</time>
      </trkpt>
      <trkpt lat="42.97245" lon="-0.04456">
        <ele>840.81</ele>
        <time>2013-08-14T09:11:06Z</time>
      </trkpt>
      <trkpt lat="42.97254" lon="-0.04476">
        <ele>837.45</ele>
        <time>2013-08-14T09:11:09Z</time>
      </trkpt>
      <trkpt lat="42.97265" lon="-0.04496">
        <ele>833.6</ele>
        <time>2013-08-14T09:11:12Z</time>
      </trkpt>
      <trkpt lat="42.97273" lon="-0.04508">
        <ele>831.2</ele>
        <time>2013-08-14T09:11:14Z</time>
      </trkpt>
      <trkpt lat="42.97286" lon="-0.04533">
        <ele>828.31</ele>
        <time>2013-08-14T09:11:18Z</time>
      </trkpt>
      <trkpt lat="42.97291" lon="-0.04546">
        <ele>826.39</ele>
        <time>2013-08-14T09:11:20Z</time>
      </trkpt>
      <trkpt lat="42.97309" lon="-0.04578">
        <ele>821.58</ele>
        <time>2013-08-14T09:11:25Z</time>
      </trkpt>
      <trkpt lat="42.97335" lon="-0.04606">
        <ele>817.74</ele>
        <time>2013-08-14T09:11:30Z</time>
      </trkpt>
      <trkpt lat="42.97368" lon="-0.04643">
        <ele>813.89</ele>
        <time>2013-08-14T09:11:36Z</time>
      </trkpt>
      <trkpt lat="42.97398" lon="-0.04677">
        <ele>810.05</ele>
        <time>2013-08-14T09:11:42Z</time>
      </trkpt>
      <trkpt lat="42.97414" lon="-0.04696">
        <ele>805.24</ele>
        <time>2013-08-14T09:11:46Z</time>
      </trkpt>
      <trkpt lat="42.97416" lon="-0.04702">
        <ele>803.32</ele>
        <time>2013-08-14T09:11:48Z</time>
      </trkpt>
      <trkpt lat="42.9741" lon="-0.04707">
        <ele>802.84</ele>
        <time>2013-08-14T09:11:50Z</time>
      </trkpt>
      <trkpt lat="42.97382" lon="-0.04715">
        <ele>798.99</ele>
        <time>2013-08-14T09:11:55Z</time>
      </trkpt>
      <trkpt lat="42.97371" lon="-0.04714">
        <ele>797.55</ele>
        <time>2013-08-14T09:11:57Z</time>
      </trkpt>
      <trkpt lat="42.97352" lon="-0.04712">
        <ele>794.19</ele>
        <time>2013-08-14T09:12:00Z</time>
      </trkpt>
      <trkpt lat="42.97345" lon="-0.04711">
        <ele>794.67</ele>
        <time>2013-08-14T09:12:01Z</time>
      </trkpt>
      <trkpt lat="42.97332" lon="-0.04711">
        <ele>794.19</ele>
        <time>2013-08-14T09:12:03Z</time>
      </trkpt>
      <trkpt lat="42.97309" lon="-0.04716">
        <ele>793.22</ele>
        <time>2013-08-14T09:12:07Z</time>
      </trkpt>
      <trkpt lat="42.973" lon="-0.04722">
        <ele>790.82</ele>
        <time>2013-08-14T09:12:09Z</time>
      </trkpt>
      <trkpt lat="42.97289" lon="-0.04737">
        <ele>786.5</ele>
        <time>2013-08-14T09:12:13Z</time>
      </trkpt>
      <trkpt lat="42.97279" lon="-0.04745">
        <ele>783.13</ele>
        <time>2013-08-14T09:12:16Z</time>
      </trkpt>
      <trkpt lat="42.97269" lon="-0.04739">
        <ele>779.77</ele>
        <time>2013-08-14T09:12:20Z</time>
      </trkpt>
      <trkpt lat="42.9726" lon="-0.0474">
        <ele>776.88</ele>
        <time>2013-08-14T09:12:23Z</time>
      </trkpt>
      <trkpt lat="42.97245" lon="-0.04744">
        <ele>773.52</ele>
        <time>2013-08-14T09:12:26Z</time>
      </trkpt>
      <trkpt lat="42.97223" lon="-0.04736">
        <ele>771.11</ele>
        <time>2013-08-14T09:12:30Z</time>
      </trkpt>
      <trkpt lat="42.97216" lon="-0.04724">
        <ele>770.63</ele>
        <time>2013-08-14T09:12:32Z</time>
      </trkpt>
      <trkpt lat="42.97201" lon="-0.04696">
        <ele>768.71</ele>
        <time>2013-08-14T09:12:37Z</time>
      </trkpt>
      <trkpt lat="42.97195" lon="-0.0468">
        <ele>767.75</ele>
        <time>2013-08-14T09:12:39Z</time>
      </trkpt>
      <trkpt lat="42.97174" lon="-0.04659">
        <ele>763.42</ele>
        <time>2013-08-14T09:12:44Z</time>
      </trkpt>
      <trkpt lat="42.97169" lon="-0.04654">
        <ele>762.94</ele>
        <time>2013-08-14T09:12:45Z</time>
      </trkpt>
      <trkpt lat="42.97159" lon="-0.04633">
        <ele>761.5</ele>
        <time>2013-08-14T09:12:48Z</time>
      </trkpt>
      <trkpt lat="42.97155" lon="-0.04619">
        <ele>761.98</ele>
        <time>2013-08-14T09:12:50Z</time>
      </trkpt>
      <trkpt lat="42.97153" lon="-0.04607">
        <ele>761.5</ele>
        <time>2013-08-14T09:12:52Z</time>
      </trkpt>
      <trkpt lat="42.97153" lon="-0.04598">
        <ele>760.54</ele>
        <time>2013-08-14T09:12:54Z</time>
      </trkpt>
      <trkpt lat="42.97152" lon="-0.04594">
        <ele>760.54</ele>
        <time>2013-08-14T09:12:56Z</time>
      </trkpt>
      <trkpt lat="42.97139" lon="-0.046">
        <ele>761.5</ele>
        <time>2013-08-14T09:13:04Z</time>
      </trkpt>
      <trkpt lat="42.97125" lon="-0.04618">
        <ele>760.54</ele>
        <time>2013-08-14T09:13:12Z</time>
      </trkpt>
      <trkpt lat="42.97123" lon="-0.04624">
        <ele>760.54</ele>
        <time>2013-08-14T09:13:15Z</time>
      </trkpt>
      <trkpt lat="42.97122" lon="-0.04639">
        <ele>760.54</ele>
        <time>2013-08-14T09:13:22Z</time>
      </trkpt>
      <trkpt lat="42.97123" lon="-0.04656">
        <ele>759.58</ele>
        <time>2013-08-14T09:13:25Z</time>
      </trkpt>
      <trkpt lat="42.97115" lon="-0.04697">
        <ele>759.58</ele>
        <time>2013-08-14T09:13:32Z</time>
      </trkpt>
      <trkpt lat="42.9709" lon="-0.04726">
        <ele>761.5</ele>
        <time>2013-08-14T09:13:43Z</time>
      </trkpt>
      <trkpt lat="42.97074" lon="-0.04759">
        <ele>761.02</ele>
        <time>2013-08-14T09:13:51Z</time>
      </trkpt>
      <trkpt lat="42.97054" lon="-0.04779">
        <ele>761.5</ele>
        <time>2013-08-14T09:13:59Z</time>
      </trkpt>
      <trkpt lat="42.9703" lon="-0.04797">
        <ele>762.94</ele>
        <time>2013-08-14T09:14:08Z</time>
      </trkpt>
      <trkpt lat="42.97023" lon="-0.04808">
        <ele>764.87</ele>
        <time>2013-08-14T09:14:14Z</time>
      </trkpt>
      <trkpt lat="42.9702" lon="-0.04814">
        <ele>766.31</ele>
        <time>2013-08-14T09:14:19Z</time>
      </trkpt>
      <trkpt lat="42.97019" lon="-0.04818">
        <ele>767.75</ele>
        <time>2013-08-14T09:14:22Z</time>
      </trkpt>
      <trkpt lat="42.97018" lon="-0.04825">
        <ele>769.67</ele>
        <time>2013-08-14T09:14:27Z</time>
      </trkpt>
      <trkpt lat="42.9701" lon="-0.04847">
        <ele>773.04</ele>
        <time>2013-08-14T09:14:39Z</time>
      </trkpt>
      <trkpt lat="42.96997" lon="-0.04866">
        <ele>774.48</ele>
        <time>2013-08-14T09:14:50Z</time>
      </trkpt>
      <trkpt lat="42.96996" lon="-0.04872">
        <ele>774.96</ele>
        <time>2013-08-14T09:14:53Z</time>
      </trkpt>
      <trkpt lat="42.96995" lon="-0.04877">
        <ele>775.92</ele>
        <time>2013-08-14T09:14:56Z</time>
      </trkpt>
      <trkpt lat="42.96998" lon="-0.04883">
        <ele>778.32</ele>
        <time>2013-08-14T09:15:01Z</time>
      </trkpt>
      <trkpt lat="42.96999" lon="-0.04886">
        <ele>778.32</ele>
        <time>2013-08-14T09:15:03Z</time>
      </trkpt>
      <trkpt lat="42.96997" lon="-0.04929">
        <ele>775.44</ele>
        <time>2013-08-14T09:15:10Z</time>
      </trkpt>
      <trkpt lat="42.96989" lon="-0.04956">
        <ele>774.96</ele>
        <time>2013-08-14T09:15:13Z</time>
      </trkpt>
      <trkpt lat="42.96987" lon="-0.04981">
        <ele>774.48</ele>
        <time>2013-08-14T09:15:16Z</time>
      </trkpt>
      <trkpt lat="42.96976" lon="-0.05048">
        <ele>771.6</ele>
        <time>2013-08-14T09:15:27Z</time>
      </trkpt>
      <trkpt lat="42.96967" lon="-0.05063">
        <ele>772.08</ele>
        <time>2013-08-14T09:15:31Z</time>
      </trkpt>
      <trkpt lat="42.96946" lon="-0.05078">
        <ele>773.52</ele>
        <time>2013-08-14T09:15:37Z</time>
      </trkpt>
      <trkpt lat="42.96937" lon="-0.05091">
        <ele>774</ele>
        <time>2013-08-14T09:15:41Z</time>
      </trkpt>
      <trkpt lat="42.96912" lon="-0.05116">
        <ele>775.44</ele>
        <time>2013-08-14T09:15:50Z</time>
      </trkpt>
      <trkpt lat="42.96886" lon="-0.05133">
        <ele>778.81</ele>
        <time>2013-08-14T09:16:00Z</time>
      </trkpt>
      <trkpt lat="42.96865" lon="-0.05148">
        <ele>781.21</ele>
        <time>2013-08-14T09:16:10Z</time>
      </trkpt>
      <trkpt lat="42.96856" lon="-0.0517">
        <ele>777.36</ele>
        <time>2013-08-14T09:16:20Z</time>
      </trkpt>
      <trkpt lat="42.96856" lon="-0.05191">
        <ele>774.96</ele>
        <time>2013-08-14T09:16:23Z</time>
      </trkpt>
      <trkpt lat="42.96859" lon="-0.05202">
        <ele>773.52</ele>
        <time>2013-08-14T09:16:25Z</time>
      </trkpt>
      <trkpt lat="42.96861" lon="-0.05211">
        <ele>772.08</ele>
        <time>2013-08-14T09:16:27Z</time>
      </trkpt>
      <trkpt lat="42.96853" lon="-0.05227">
        <ele>771.6</ele>
        <time>2013-08-14T09:16:30Z</time>
      </trkpt>
      <trkpt lat="42.96829" lon="-0.05243">
        <ele>773.04</ele>
        <time>2013-08-14T09:16:37Z</time>
      </trkpt>
      <trkpt lat="42.96813" lon="-0.05254">
        <ele>772.56</ele>
        <time>2013-08-14T09:16:43Z</time>
      </trkpt>
      <trkpt lat="42.96807" lon="-0.0526">
        <ele>770.63</ele>
        <time>2013-08-14T09:16:46Z</time>
      </trkpt>
      <trkpt lat="42.96798" lon="-0.05263">
        <ele>770.63</ele>
        <time>2013-08-14T09:16:49Z</time>
      </trkpt>
      <trkpt lat="42.96793" lon="-0.05264">
        <ele>771.6</ele>
        <time>2013-08-14T09:16:51Z</time>
      </trkpt>
      <trkpt lat="42.96755" lon="-0.0527">
        <ele>772.56</ele>
        <time>2013-08-14T09:17:03Z</time>
      </trkpt>
      <trkpt lat="42.9673" lon="-0.05272">
        <ele>773.52</ele>
        <time>2013-08-14T09:17:12Z</time>
      </trkpt>
      <trkpt lat="42.96723" lon="-0.05273">
        <ele>773.52</ele>
        <time>2013-08-14T09:17:14Z</time>
      </trkpt>
      <trkpt lat="42.96696" lon="-0.05279">
        <ele>772.08</ele>
        <time>2013-08-14T09:17:23Z</time>
      </trkpt>
      <trkpt lat="42.96685" lon="-0.05279">
        <ele>770.63</ele>
        <time>2013-08-14T09:17:27Z</time>
      </trkpt>
      <trkpt lat="42.96666" lon="-0.05287">
        <ele>767.27</ele>
        <time>2013-08-14T09:17:31Z</time>
      </trkpt>
      <trkpt lat="42.96655" lon="-0.05293">
        <ele>766.31</ele>
        <time>2013-08-14T09:17:33Z</time>
      </trkpt>
      <trkpt lat="42.9664" lon="-0.05302">
        <ele>764.87</ele>
        <time>2013-08-14T09:17:36Z</time>
      </trkpt>
      <trkpt lat="42.96627" lon="-0.05304">
        <ele>763.9</ele>
        <time>2013-08-14T09:17:39Z</time>
      </trkpt>
      <trkpt lat="42.966" lon="-0.05302">
        <ele>761.5</ele>
        <time>2013-08-14T09:17:44Z</time>
      </trkpt>
      <trkpt lat="42.9658" lon="-0.05296">
        <ele>759.1</ele>
        <time>2013-08-14T09:17:48Z</time>
      </trkpt>
      <trkpt lat="42.96568" lon="-0.05293">
        <ele>757.66</ele>
        <time>2013-08-14T09:17:50Z</time>
      </trkpt>
      <trkpt lat="42.96544" lon="-0.05287">
        <ele>754.29</ele>
        <time>2013-08-14T09:17:55Z</time>
      </trkpt>
      <trkpt lat="42.96529" lon="-0.05282">
        <ele>752.85</ele>
        <time>2013-08-14T09:17:58Z</time>
      </trkpt>
      <trkpt lat="42.96518" lon="-0.05274">
        <ele>749.97</ele>
        <time>2013-08-14T09:18:00Z</time>
      </trkpt>
      <trkpt lat="42.965" lon="-0.05268">
        <ele>745.16</ele>
        <time>2013-08-14T09:18:03Z</time>
      </trkpt>
      <trkpt lat="42.96494" lon="-0.05265">
        <ele>744.2</ele>
        <time>2013-08-14T09:18:04Z</time>
      </trkpt>
      <trkpt lat="42.96485" lon="-0.05262">
        <ele>741.31</ele>
        <time>2013-08-14T09:18:06Z</time>
      </trkpt>
      <trkpt lat="42.96467" lon="-0.05255">
        <ele>736.51</ele>
        <time>2013-08-14T09:18:10Z</time>
      </trkpt>
      <trkpt lat="42.96446" lon="-0.05247">
        <ele>732.66</ele>
        <time>2013-08-14T09:18:13Z</time>
      </trkpt>
      <trkpt lat="42.96437" lon="-0.05245">
        <ele>730.26</ele>
        <time>2013-08-14T09:18:15Z</time>
      </trkpt>
      <trkpt lat="42.96428" lon="-0.0524">
        <ele>727.37</ele>
        <time>2013-08-14T09:18:16Z</time>
      </trkpt>
      <trkpt lat="42.96413" lon="-0.05237">
        <ele>724.97</ele>
        <time>2013-08-14T09:18:19Z</time>
      </trkpt>
      <trkpt lat="42.96402" lon="-0.05234">
        <ele>723.05</ele>
        <time>2013-08-14T09:18:21Z</time>
      </trkpt>
      <trkpt lat="42.96391" lon="-0.05235">
        <ele>721.61</ele>
        <time>2013-08-14T09:18:23Z</time>
      </trkpt>
      <trkpt lat="42.9638" lon="-0.05234">
        <ele>719.2</ele>
        <time>2013-08-14T09:18:25Z</time>
      </trkpt>
      <trkpt lat="42.96378" lon="-0.05232">
        <ele>718.72</ele>
        <time>2013-08-14T09:18:26Z</time>
      </trkpt>
      <trkpt lat="42.96366" lon="-0.05219">
        <ele>716.8</ele>
        <time>2013-08-14T09:18:29Z</time>
      </trkpt>
      <trkpt lat="42.96359" lon="-0.05221">
        <ele>716.32</ele>
        <time>2013-08-14T09:18:32Z</time>
      </trkpt>
      <trkpt lat="42.9635" lon="-0.05217">
        <ele>715.36</ele>
        <time>2013-08-14T09:18:34Z</time>
      </trkpt>
      <trkpt lat="42.96342" lon="-0.05213">
        <ele>714.88</ele>
        <time>2013-08-14T09:18:36Z</time>
      </trkpt>
      <trkpt lat="42.96321" lon="-0.05205">
        <ele>711.51</ele>
        <time>2013-08-14T09:18:40Z</time>
      </trkpt>
      <trkpt lat="42.96312" lon="-0.05199">
        <ele>708.15</ele>
        <time>2013-08-14T09:18:42Z</time>
      </trkpt>
      <trkpt lat="42.963" lon="-0.05193">
        <ele>705.75</ele>
        <time>2013-08-14T09:18:45Z</time>
      </trkpt>
      <trkpt lat="42.96291" lon="-0.0518">
        <ele>703.34</ele>
        <time>2013-08-14T09:18:48Z</time>
      </trkpt>
      <trkpt lat="42.96283" lon="-0.05169">
        <ele>702.38</ele>
        <time>2013-08-14T09:18:51Z</time>
      </trkpt>
      <trkpt lat="42.9628" lon="-0.05154">
        <ele>699.98</ele>
        <time>2013-08-14T09:18:54Z</time>
      </trkpt>
      <trkpt lat="42.96282" lon="-0.0513">
        <ele>699.02</ele>
        <time>2013-08-14T09:19:03Z</time>
      </trkpt>
      <trkpt lat="42.9627" lon="-0.05174">
        <ele>698.53</ele>
        <time>2013-08-14T09:19:08Z</time>
      </trkpt>
      <trkpt lat="42.96251" lon="-0.052">
        <ele>700.94</ele>
        <time>2013-08-14T09:19:18Z</time>
      </trkpt>
      <trkpt lat="42.96236" lon="-0.05217">
        <ele>704.3</ele>
        <time>2013-08-14T09:19:26Z</time>
      </trkpt>
      <trkpt lat="42.96234" lon="-0.0522">
        <ele>706.23</ele>
        <time>2013-08-14T09:19:28Z</time>
      </trkpt>
      <trkpt lat="42.96227" lon="-0.05225">
        <ele>707.67</ele>
        <time>2013-08-14T09:19:32Z</time>
      </trkpt>
      <trkpt lat="42.96225" lon="-0.05227">
        <ele>707.67</ele>
        <time>2013-08-14T09:19:33Z</time>
      </trkpt>
      <trkpt lat="42.96223" lon="-0.05231">
        <ele>708.63</ele>
        <time>2013-08-14T09:19:35Z</time>
      </trkpt>
      <trkpt lat="42.96216" lon="-0.05239">
        <ele>709.59</ele>
        <time>2013-08-14T09:19:41Z</time>
      </trkpt>
      <trkpt lat="42.96207" lon="-0.05248">
        <ele>711.51</ele>
        <time>2013-08-14T09:19:48Z</time>
      </trkpt>
      <trkpt lat="42.96203" lon="-0.05249">
        <ele>711.51</ele>
        <time>2013-08-14T09:19:51Z</time>
      </trkpt>
      <trkpt lat="42.96191" lon="-0.05243">
        <ele>711.03</ele>
        <time>2013-08-14T09:19:57Z</time>
      </trkpt>
      <trkpt lat="42.96164" lon="-0.05259">
        <ele>711.99</ele>
        <time>2013-08-14T09:20:10Z</time>
      </trkpt>
      <trkpt lat="42.96145" lon="-0.05292">
        <ele>712.47</ele>
        <time>2013-08-14T09:20:22Z</time>
      </trkpt>
      <trkpt lat="42.96143" lon="-0.05299">
        <ele>712.47</ele>
        <time>2013-08-14T09:20:25Z</time>
      </trkpt>
      <trkpt lat="42.96143" lon="-0.05307">
        <ele>712.47</ele>
        <time>2013-08-14T09:20:29Z</time>
      </trkpt>
      <trkpt lat="42.96142" lon="-0.05316">
        <ele>710.55</ele>
        <time>2013-08-14T09:20:34Z</time>
      </trkpt>
      <trkpt lat="42.96139" lon="-0.05329">
        <ele>709.11</ele>
        <time>2013-08-14T09:20:38Z</time>
      </trkpt>
      <trkpt lat="42.96134" lon="-0.05352">
        <ele>707.19</ele>
        <time>2013-08-14T09:20:44Z</time>
      </trkpt>
      <trkpt lat="42.96131" lon="-0.05365">
        <ele>705.75</ele>
        <time>2013-08-14T09:20:47Z</time>
      </trkpt>
      <trkpt lat="42.96131" lon="-0.05371">
        <ele>705.26</ele>
        <time>2013-08-14T09:20:48Z</time>
      </trkpt>
      <trkpt lat="42.9613" lon="-0.05381">
        <ele>704.3</ele>
        <time>2013-08-14T09:20:50Z</time>
      </trkpt>
      <trkpt lat="42.96118" lon="-0.0542">
        <ele>700.94</ele>
        <time>2013-08-14T09:20:58Z</time>
      </trkpt>
      <trkpt lat="42.96117" lon="-0.05426">
        <ele>700.46</ele>
        <time>2013-08-14T09:20:59Z</time>
      </trkpt>
      <trkpt lat="42.96113" lon="-0.05444">
        <ele>699.02</ele>
        <time>2013-08-14T09:21:02Z</time>
      </trkpt>
      <trkpt lat="42.96104" lon="-0.05457">
        <ele>697.57</ele>
        <time>2013-08-14T09:21:07Z</time>
      </trkpt>
      <trkpt lat="42.96103" lon="-0.05461">
        <ele>696.61</ele>
        <time>2013-08-14T09:21:09Z</time>
      </trkpt>
      <trkpt lat="42.96097" lon="-0.05467">
        <ele>695.65</ele>
        <time>2013-08-14T09:21:12Z</time>
      </trkpt>
      <trkpt lat="42.96079" lon="-0.05479">
        <ele>694.21</ele>
        <time>2013-08-14T09:21:21Z</time>
      </trkpt>
      <trkpt lat="42.96076" lon="-0.05481">
        <ele>693.25</ele>
        <time>2013-08-14T09:21:23Z</time>
      </trkpt>
      <trkpt lat="42.96073" lon="-0.05493">
        <ele>691.33</ele>
        <time>2013-08-14T09:21:27Z</time>
      </trkpt>
      <trkpt lat="42.96067" lon="-0.0551">
        <ele>689.4</ele>
        <time>2013-08-14T09:21:31Z</time>
      </trkpt>
      <trkpt lat="42.96064" lon="-0.05514">
        <ele>688.92</ele>
        <time>2013-08-14T09:21:32Z</time>
      </trkpt>
      <trkpt lat="42.96054" lon="-0.05529">
        <ele>687.48</ele>
        <time>2013-08-14T09:21:36Z</time>
      </trkpt>
      <trkpt lat="42.96049" lon="-0.05531">
        <ele>686.52</ele>
        <time>2013-08-14T09:21:39Z</time>
      </trkpt>
      <trkpt lat="42.96032" lon="-0.05543">
        <ele>683.63</ele>
        <time>2013-08-14T09:21:45Z</time>
      </trkpt>
      <trkpt lat="42.96014" lon="-0.05564">
        <ele>680.27</ele>
        <time>2013-08-14T09:21:51Z</time>
      </trkpt>
      <trkpt lat="42.96005" lon="-0.05568">
        <ele>679.79</ele>
        <time>2013-08-14T09:21:55Z</time>
      </trkpt>
      <trkpt lat="42.95988" lon="-0.05569">
        <ele>677.87</ele>
        <time>2013-08-14T09:22:01Z</time>
      </trkpt>
      <trkpt lat="42.95984" lon="-0.05566">
        <ele>676.91</ele>
        <time>2013-08-14T09:22:03Z</time>
      </trkpt>
      <trkpt lat="42.9598" lon="-0.05561">
        <ele>675.94</ele>
        <time>2013-08-14T09:22:06Z</time>
      </trkpt>
      <trkpt lat="42.95972" lon="-0.05541">
        <ele>676.42</ele>
        <time>2013-08-14T09:22:15Z</time>
      </trkpt>
      <trkpt lat="42.95971" lon="-0.05536">
        <ele>675.94</ele>
        <time>2013-08-14T09:22:17Z</time>
      </trkpt>
      <trkpt lat="42.95971" lon="-0.05528">
        <ele>673.54</ele>
        <time>2013-08-14T09:22:20Z</time>
      </trkpt>
      <trkpt lat="42.95973" lon="-0.05522">
        <ele>672.1</ele>
        <time>2013-08-14T09:22:22Z</time>
      </trkpt>
      <trkpt lat="42.95967" lon="-0.05498">
        <ele>668.73</ele>
        <time>2013-08-14T09:22:28Z</time>
      </trkpt>
      <trkpt lat="42.95966" lon="-0.05495">
        <ele>668.73</ele>
        <time>2013-08-14T09:22:29Z</time>
      </trkpt>
      <trkpt lat="42.95958" lon="-0.05489">
        <ele>667.29</ele>
        <time>2013-08-14T09:22:32Z</time>
      </trkpt>
      <trkpt lat="42.95946" lon="-0.05483">
        <ele>663.93</ele>
        <time>2013-08-14T09:22:37Z</time>
      </trkpt>
      <trkpt lat="42.95938" lon="-0.05479">
        <ele>661.52</ele>
        <time>2013-08-14T09:22:40Z</time>
      </trkpt>
      <trkpt lat="42.9593" lon="-0.05472">
        <ele>658.16</ele>
        <time>2013-08-14T09:22:45Z</time>
      </trkpt>
      <trkpt lat="42.95917" lon="-0.05465">
        <ele>654.8</ele>
        <time>2013-08-14T09:22:49Z</time>
      </trkpt>
      <trkpt lat="42.95911" lon="-0.05462">
        <ele>652.39</ele>
        <time>2013-08-14T09:22:51Z</time>
      </trkpt>
      <trkpt lat="42.959" lon="-0.05462">
        <ele>649.03</ele>
        <time>2013-08-14T09:22:54Z</time>
      </trkpt>
      <trkpt lat="42.9589" lon="-0.05461">
        <ele>645.66</ele>
        <time>2013-08-14T09:22:57Z</time>
      </trkpt>
      <trkpt lat="42.95881" lon="-0.05459">
        <ele>641.82</ele>
        <time>2013-08-14T09:23:00Z</time>
      </trkpt>
      <trkpt lat="42.95872" lon="-0.05459">
        <ele>638.93</ele>
        <time>2013-08-14T09:23:03Z</time>
      </trkpt>
      <trkpt lat="42.95869" lon="-0.05458">
        <ele>638.45</ele>
        <time>2013-08-14T09:23:04Z</time>
      </trkpt>
      <trkpt lat="42.95855" lon="-0.05451">
        <ele>635.09</ele>
        <time>2013-08-14T09:23:12Z</time>
      </trkpt>
      <trkpt lat="42.95849" lon="-0.0545">
        <ele>633.65</ele>
        <time>2013-08-14T09:23:15Z</time>
      </trkpt>
      <trkpt lat="42.95844" lon="-0.05447">
        <ele>631.72</ele>
        <time>2013-08-14T09:23:17Z</time>
      </trkpt>
      <trkpt lat="42.9584" lon="-0.05442">
        <ele>631.72</ele>
        <time>2013-08-14T09:23:19Z</time>
      </trkpt>
      <trkpt lat="42.95818" lon="-0.05426">
        <ele>628.36</ele>
        <time>2013-08-14T09:23:25Z</time>
      </trkpt>
      <trkpt lat="42.95805" lon="-0.05412">
        <ele>626.44</ele>
        <time>2013-08-14T09:23:29Z</time>
      </trkpt>
      <trkpt lat="42.95797" lon="-0.05406">
        <ele>624.99</ele>
        <time>2013-08-14T09:23:31Z</time>
      </trkpt>
      <trkpt lat="42.95779" lon="-0.05396">
        <ele>621.15</ele>
        <time>2013-08-14T09:23:35Z</time>
      </trkpt>
      <trkpt lat="42.95774" lon="-0.05394">
        <ele>619.23</ele>
        <time>2013-08-14T09:23:36Z</time>
      </trkpt>
      <trkpt lat="42.95757" lon="-0.0538">
        <ele>614.9</ele>
        <time>2013-08-14T09:23:41Z</time>
      </trkpt>
      <trkpt lat="42.95753" lon="-0.05379">
        <ele>613.46</ele>
        <time>2013-08-14T09:23:44Z</time>
      </trkpt>
      <trkpt lat="42.9574" lon="-0.05372">
        <ele>609.61</ele>
        <time>2013-08-14T09:23:49Z</time>
      </trkpt>
      <trkpt lat="42.95737" lon="-0.05371">
        <ele>608.65</ele>
        <time>2013-08-14T09:23:50Z</time>
      </trkpt>
      <trkpt lat="42.9572" lon="-0.05371">
        <ele>604.81</ele>
        <time>2013-08-14T09:23:54Z</time>
      </trkpt>
      <trkpt lat="42.95706" lon="-0.05367">
        <ele>602.4</ele>
        <time>2013-08-14T09:23:57Z</time>
      </trkpt>
      <trkpt lat="42.95679" lon="-0.05356">
        <ele>599.04</ele>
        <time>2013-08-14T09:24:05Z</time>
      </trkpt>
      <trkpt lat="42.95672" lon="-0.05353">
        <ele>596.64</ele>
        <time>2013-08-14T09:24:07Z</time>
      </trkpt>
      <trkpt lat="42.95651" lon="-0.05344">
        <ele>592.79</ele>
        <time>2013-08-14T09:24:11Z</time>
      </trkpt>
      <trkpt lat="42.95641" lon="-0.05342">
        <ele>589.91</ele>
        <time>2013-08-14T09:24:14Z</time>
      </trkpt>
      <trkpt lat="42.95635" lon="-0.05342">
        <ele>587.98</ele>
        <time>2013-08-14T09:24:16Z</time>
      </trkpt>
      <trkpt lat="42.95624" lon="-0.05351">
        <ele>583.18</ele>
        <time>2013-08-14T09:24:20Z</time>
      </trkpt>
      <trkpt lat="42.95621" lon="-0.05355">
        <ele>581.25</ele>
        <time>2013-08-14T09:24:22Z</time>
      </trkpt>
      <trkpt lat="42.9562" lon="-0.05358">
        <ele>580.29</ele>
        <time>2013-08-14T09:24:23Z</time>
      </trkpt>
      <trkpt lat="42.9561" lon="-0.05364">
        <ele>576.93</ele>
        <time>2013-08-14T09:24:27Z</time>
      </trkpt>
      <trkpt lat="42.95602" lon="-0.05367">
        <ele>573.08</ele>
        <time>2013-08-14T09:24:30Z</time>
      </trkpt>
      <trkpt lat="42.95594" lon="-0.05372">
        <ele>570.68</ele>
        <time>2013-08-14T09:24:32Z</time>
      </trkpt>
      <trkpt lat="42.95588" lon="-0.05375">
        <ele>569.24</ele>
        <time>2013-08-14T09:24:34Z</time>
      </trkpt>
      <trkpt lat="42.95579" lon="-0.05381">
        <ele>567.32</ele>
        <time>2013-08-14T09:24:36Z</time>
      </trkpt>
      <trkpt lat="42.95571" lon="-0.05391">
        <ele>565.39</ele>
        <time>2013-08-14T09:24:38Z</time>
      </trkpt>
      <trkpt lat="42.9557" lon="-0.05393">
        <ele>565.39</ele>
        <time>2013-08-14T09:24:39Z</time>
      </trkpt>
      <trkpt lat="42.95564" lon="-0.05404">
        <ele>562.99</ele>
        <time>2013-08-14T09:24:41Z</time>
      </trkpt>
      <trkpt lat="42.95561" lon="-0.05414">
        <ele>561.55</ele>
        <time>2013-08-14T09:24:42Z</time>
      </trkpt>
      <trkpt lat="42.9556" lon="-0.05416">
        <ele>561.07</ele>
        <time>2013-08-14T09:24:43Z</time>
      </trkpt>
      <trkpt lat="42.95559" lon="-0.05425">
        <ele>560.11</ele>
        <time>2013-08-14T09:24:44Z</time>
      </trkpt>
      <trkpt lat="42.95554" lon="-0.0545">
        <ele>556.26</ele>
        <time>2013-08-14T09:24:47Z</time>
      </trkpt>
      <trkpt lat="42.95551" lon="-0.05466">
        <ele>552.9</ele>
        <time>2013-08-14T09:24:49Z</time>
      </trkpt>
      <trkpt lat="42.9555" lon="-0.05473">
        <ele>551.93</ele>
        <time>2013-08-14T09:24:50Z</time>
      </trkpt>
      <trkpt lat="42.9555" lon="-0.05481">
        <ele>550.97</ele>
        <time>2013-08-14T09:24:51Z</time>
      </trkpt>
      <trkpt lat="42.95547" lon="-0.05501">
        <ele>547.61</ele>
        <time>2013-08-14T09:24:54Z</time>
      </trkpt>
      <trkpt lat="42.95543" lon="-0.05505">
        <ele>547.61</ele>
        <time>2013-08-14T09:24:55Z</time>
      </trkpt>
      <trkpt lat="42.95498" lon="-0.05573">
        <ele>547.61</ele>
        <time>2013-08-14T09:25:06Z</time>
      </trkpt>
      <trkpt lat="42.95486" lon="-0.05589">
        <ele>548.09</ele>
        <time>2013-08-14T09:25:11Z</time>
      </trkpt>
      <trkpt lat="42.95475" lon="-0.05596">
        <ele>549.05</ele>
        <time>2013-08-14T09:25:14Z</time>
      </trkpt>
      <trkpt lat="42.95433" lon="-0.05621">
        <ele>550.01</ele>
        <time>2013-08-14T09:25:28Z</time>
      </trkpt>
      <trkpt lat="42.9543" lon="-0.05624">
        <ele>550.01</ele>
        <time>2013-08-14T09:25:29Z</time>
      </trkpt>
      <trkpt lat="42.95433" lon="-0.05648">
        <ele>547.61</ele>
        <time>2013-08-14T09:25:34Z</time>
      </trkpt>
      <trkpt lat="42.95437" lon="-0.05679">
        <ele>546.65</ele>
        <time>2013-08-14T09:25:37Z</time>
      </trkpt>
      <trkpt lat="42.95436" lon="-0.05684">
        <ele>546.65</ele>
        <time>2013-08-14T09:25:38Z</time>
      </trkpt>
      <trkpt lat="42.95435" lon="-0.05693">
        <ele>546.65</ele>
        <time>2013-08-14T09:25:39Z</time>
      </trkpt>
      <trkpt lat="42.95425" lon="-0.05721">
        <ele>546.17</ele>
        <time>2013-08-14T09:25:42Z</time>
      </trkpt>
      <trkpt lat="42.95423" lon="-0.05784">
        <ele>543.28</ele>
        <time>2013-08-14T09:25:50Z</time>
      </trkpt>
      <trkpt lat="42.9543" lon="-0.05789">
        <ele>543.28</ele>
        <time>2013-08-14T09:25:51Z</time>
      </trkpt>
      <trkpt lat="42.95441" lon="-0.05795">
        <ele>541.84</ele>
        <time>2013-08-14T09:25:53Z</time>
      </trkpt>
      <trkpt lat="42.95452" lon="-0.05797">
        <ele>540.88</ele>
        <time>2013-08-14T09:25:54Z</time>
      </trkpt>
      <trkpt lat="42.95477" lon="-0.05824">
        <ele>536.55</ele>
        <time>2013-08-14T09:25:58Z</time>
      </trkpt>
      <trkpt lat="42.95498" lon="-0.0584">
        <ele>535.11</ele>
        <time>2013-08-14T09:26:01Z</time>
      </trkpt>
      <trkpt lat="42.95505" lon="-0.05843">
        <ele>534.15</ele>
        <time>2013-08-14T09:26:02Z</time>
      </trkpt>
      <trkpt lat="42.95531" lon="-0.05859">
        <ele>531.75</ele>
        <time>2013-08-14T09:26:06Z</time>
      </trkpt>
      <trkpt lat="42.95564" lon="-0.05903">
        <ele>529.34</ele>
        <time>2013-08-14T09:26:11Z</time>
      </trkpt>
      <trkpt lat="42.95573" lon="-0.05927">
        <ele>527.9</ele>
        <time>2013-08-14T09:26:13Z</time>
      </trkpt>
      <trkpt lat="42.95575" lon="-0.05968">
        <ele>525.02</ele>
        <time>2013-08-14T09:26:17Z</time>
      </trkpt>
      <trkpt lat="42.95566" lon="-0.05978">
        <ele>525.02</ele>
        <time>2013-08-14T09:26:18Z</time>
      </trkpt>
      <trkpt lat="42.95573" lon="-0.06036">
        <ele>523.58</ele>
        <time>2013-08-14T09:26:24Z</time>
      </trkpt>
      <trkpt lat="42.95576" lon="-0.06058">
        <ele>523.09</ele>
        <time>2013-08-14T09:26:26Z</time>
      </trkpt>
      <trkpt lat="42.95566" lon="-0.06161">
        <ele>519.73</ele>
        <time>2013-08-14T09:26:34Z</time>
      </trkpt>
      <trkpt lat="42.95561" lon="-0.06187">
        <ele>518.29</ele>
        <time>2013-08-14T09:26:36Z</time>
      </trkpt>
      <trkpt lat="42.95521" lon="-0.06234">
        <ele>516.37</ele>
        <time>2013-08-14T09:26:42Z</time>
      </trkpt>
      <trkpt lat="42.95463" lon="-0.06307">
        <ele>516.85</ele>
        <time>2013-08-14T09:26:53Z</time>
      </trkpt>
      <trkpt lat="42.95465" lon="-0.06347">
        <ele>515.4</ele>
        <time>2013-08-14T09:26:58Z</time>
      </trkpt>
      <trkpt lat="42.9547" lon="-0.06353">
        <ele>514.44</ele>
        <time>2013-08-14T09:26:59Z</time>
      </trkpt>
      <trkpt lat="42.95479" lon="-0.06363">
        <ele>512.04</ele>
        <time>2013-08-14T09:27:01Z</time>
      </trkpt>
      <trkpt lat="42.95496" lon="-0.06376">
        <ele>509.16</ele>
        <time>2013-08-14T09:27:06Z</time>
      </trkpt>
      <trkpt lat="42.95497" lon="-0.06379">
        <ele>509.64</ele>
        <time>2013-08-14T09:27:07Z</time>
      </trkpt>
      <trkpt lat="42.95515" lon="-0.06382">
        <ele>509.16</ele>
        <time>2013-08-14T09:27:10Z</time>
      </trkpt>
      <trkpt lat="42.95541" lon="-0.06391">
        <ele>507.23</ele>
        <time>2013-08-14T09:27:14Z</time>
      </trkpt>
      <trkpt lat="42.95585" lon="-0.06422">
        <ele>503.87</ele>
        <time>2013-08-14T09:27:20Z</time>
      </trkpt>
      <trkpt lat="42.95603" lon="-0.06433">
        <ele>502.91</ele>
        <time>2013-08-14T09:27:22Z</time>
      </trkpt>
      <trkpt lat="42.95612" lon="-0.06438">
        <ele>501.95</ele>
        <time>2013-08-14T09:27:23Z</time>
      </trkpt>
      <trkpt lat="42.95639" lon="-0.06446">
        <ele>499.06</ele>
        <time>2013-08-14T09:27:26Z</time>
      </trkpt>
      <trkpt lat="42.95663" lon="-0.06446">
        <ele>496.66</ele>
        <time>2013-08-14T09:27:29Z</time>
      </trkpt>
      <trkpt lat="42.95679" lon="-0.06443">
        <ele>495.7</ele>
        <time>2013-08-14T09:27:32Z</time>
      </trkpt>
      <trkpt lat="42.95725" lon="-0.06444">
        <ele>493.77</ele>
        <time>2013-08-14T09:27:41Z</time>
      </trkpt>
      <trkpt lat="42.95751" lon="-0.0644">
        <ele>494.26</ele>
        <time>2013-08-14T09:27:45Z</time>
      </trkpt>
      <trkpt lat="42.95776" lon="-0.06428">
        <ele>493.77</ele>
        <time>2013-08-14T09:27:49Z</time>
      </trkpt>
      <trkpt lat="42.95782" lon="-0.06419">
        <ele>493.77</ele>
        <time>2013-08-14T09:27:50Z</time>
      </trkpt>
      <trkpt lat="42.95812" lon="-0.06391">
        <ele>493.29</ele>
        <time>2013-08-14T09:27:55Z</time>
      </trkpt>
      <trkpt lat="42.95834" lon="-0.06373">
        <ele>492.81</ele>
        <time>2013-08-14T09:27:59Z</time>
      </trkpt>
      <trkpt lat="42.95851" lon="-0.06371">
        <ele>492.33</ele>
        <time>2013-08-14T09:28:02Z</time>
      </trkpt>
      <trkpt lat="42.95856" lon="-0.06361">
        <ele>491.37</ele>
        <time>2013-08-14T09:28:09Z</time>
      </trkpt>
      <trkpt lat="42.95857" lon="-0.06362">
        <ele>491.85</ele>
        <time>2013-08-14T09:28:19Z</time>
      </trkpt>
      <trkpt lat="42.95858" lon="-0.06363">
        <ele>491.85</ele>
        <time>2013-08-14T09:28:21Z</time>
      </trkpt>
      <trkpt lat="42.95858" lon="-0.06365">
        <ele>491.37</ele>
        <time>2013-08-14T09:28:35Z</time>
      </trkpt>
      <trkpt lat="42.95858" lon="-0.06364">
        <ele>491.85</ele>
        <time>2013-08-14T09:28:43Z</time>
      </trkpt>
      <trkpt lat="42.9586" lon="-0.06357">
        <ele>491.85</ele>
        <time>2013-08-14T09:28:48Z</time>
      </trkpt>
      <trkpt lat="42.9586" lon="-0.06353">
        <ele>492.33</ele>
        <time>2013-08-14T09:28:51Z</time>
      </trkpt>
      <trkpt lat="42.95856" lon="-0.06353">
        <ele>492.81</ele>
        <time>2013-08-14T09:28:55Z</time>
      </trkpt>
      <trkpt lat="42.95854" lon="-0.06355">
        <ele>492.81</ele>
        <time>2013-08-14T09:28:57Z</time>
      </trkpt>
      <trkpt lat="42.95855" lon="-0.06357">
        <ele>493.77</ele>
        <time>2013-08-14T09:29:08Z</time>
      </trkpt>
      <trkpt lat="42.95862" lon="-0.06359">
        <ele>492.81</ele>
        <time>2013-08-14T09:29:27Z</time>
      </trkpt>
      <trkpt lat="42.95862" lon="-0.06358">
        <ele>492.81</ele>
        <time>2013-08-14T09:29:49Z</time>
      </trkpt>
      <trkpt lat="42.95861" lon="-0.06356">
        <ele>493.29</ele>
        <time>2013-08-14T09:30:12Z</time>
      </trkpt>
      <trkpt lat="42.95859" lon="-0.06358">
        <ele>493.29</ele>
        <time>2013-08-14T09:30:33Z</time>
      </trkpt>
      <trkpt lat="42.95855" lon="-0.06364">
        <ele>493.29</ele>
        <time>2013-08-14T09:30:43Z</time>
      </trkpt>
      <trkpt lat="42.9585" lon="-0.06365">
        <ele>493.29</ele>
        <time>2013-08-14T09:30:47Z</time>
      </trkpt>
      <trkpt lat="42.95829" lon="-0.06383">
        <ele>493.29</ele>
        <time>2013-08-14T09:31:13Z</time>
      </trkpt>
      <trkpt lat="42.95826" lon="-0.06397">
        <ele>493.29</ele>
        <time>2013-08-14T09:31:39Z</time>
      </trkpt>
      <trkpt lat="42.95825" lon="-0.06394">
        <ele>493.29</ele>
        <time>2013-08-14T09:31:46Z</time>
      </trkpt>
      <trkpt lat="42.95825" lon="-0.06515">
        <ele>493.29</ele>
        <time>2013-08-14T09:34:20Z</time>
      </trkpt>
      <trkpt lat="42.95827" lon="-0.06475">
        <ele>493.29</ele>
        <time>2013-08-14T09:34:52Z</time>
      </trkpt>
      <trkpt lat="42.95823" lon="-0.06457">
        <ele>492.81</ele>
        <time>2013-08-14T09:35:41Z</time>
      </trkpt>
      <trkpt lat="42.95831" lon="-0.06453">
        <ele>493.29</ele>
        <time>2013-08-14T09:36:05Z</time>
      </trkpt>
      <trkpt lat="42.95825" lon="-0.06472">
        <ele>493.29</ele>
        <time>2013-08-14T09:36:30Z</time>
      </trkpt>
      <trkpt lat="42.95837" lon="-0.06474">
        <ele>493.29</ele>
        <time>2013-08-14T09:37:03Z</time>
      </trkpt>
      <trkpt lat="42.95839" lon="-0.06471">
        <ele>492.81</ele>
        <time>2013-08-14T09:37:06Z</time>
      </trkpt>
      <trkpt lat="42.9585" lon="-0.06451">
        <ele>493.77</ele>
        <time>2013-08-14T09:37:29Z</time>
      </trkpt>
      <trkpt lat="42.95845" lon="-0.06455">
        <ele>493.29</ele>
        <time>2013-08-14T09:37:55Z</time>
      </trkpt>
      <trkpt lat="42.95837" lon="-0.06459">
        <ele>490.89</ele>
        <time>2013-08-14T09:38:02Z</time>
      </trkpt>
      <trkpt lat="42.95836" lon="-0.06458">
        <ele>493.29</ele>
        <time>2013-08-14T09:38:04Z</time>
      </trkpt>
      <trkpt lat="42.95836" lon="-0.06455">
        <ele>493.77</ele>
        <time>2013-08-14T09:38:05Z</time>
      </trkpt>
      <trkpt lat="42.95836" lon="-0.06453">
        <ele>492.33</ele>
        <time>2013-08-14T09:38:06Z</time>
      </trkpt>
      <trkpt lat="42.95835" lon="-0.06452">
        <ele>487.05</ele>
        <time>2013-08-14T09:38:08Z</time>
      </trkpt>
      <trkpt lat="42.95835" lon="-0.06451">
        <ele>497.62</ele>
        <time>2013-08-14T09:38:09Z</time>
      </trkpt>
      <trkpt lat="42.95835" lon="-0.06449">
        <ele>493.77</ele>
        <time>2013-08-14T09:38:10Z</time>
      </trkpt>
      <trkpt lat="42.95849" lon="-0.06402">
        <ele>490.41</ele>
        <time>2013-08-14T09:38:14Z</time>
      </trkpt>
      <trkpt lat="42.95851" lon="-0.06398">
        <ele>493.77</ele>
        <time>2013-08-14T09:38:15Z</time>
      </trkpt>
      <trkpt lat="42.95855" lon="-0.06393">
        <ele>491.85</ele>
        <time>2013-08-14T09:38:25Z</time>
      </trkpt>
      <trkpt lat="42.95855" lon="-0.06392">
        <ele>493.77</ele>
        <time>2013-08-14T09:38:26Z</time>
      </trkpt>
    </trkseg>
  </trk>
</gpx>